<?xml version="1.0" encoding="utf-8"?>
<gpx xmlns:xsi="http://www.w3.org/2001/XMLSchema-instance" xmlns:xsd="http://www.w3.org/2001/XMLSchema" version="1.1" creator="Shapelink.com" xmlns="http://www.topografix.com/GPX/1/1" xmlns:gpxtpx="http://www.garmin.com/xmlschemas/TrackPointExtension/v1">
  <metadata>
    <name>Längdskidåkning - Klassisk 18.88 km, 2015-01-21</name>
    <desc></desc>
    <author><name>Alexander Engvall</name></author> 
    <time>2015-01-21T20:04:17Z</time>
  </metadata>
  <trk>
    <name>Längdskidåkning - Klassisk 18.88 km, 2015-01-21</name>
    <trkseg>
      <trkpt lat="59.163356" lon="17.876486">
        <ele>83</ele>
        <time>2015-01-21T20:04:17Z</time>
      </trkpt>
      <trkpt lat="59.163467" lon="17.876442">
        <ele>82.8</ele>
        <time>2015-01-21T20:04:21Z</time>
      </trkpt>
      <trkpt lat="59.163474" lon="17.876422">
        <ele>82.7</ele>
        <time>2015-01-21T20:04:23Z</time>
      </trkpt>
      <trkpt lat="59.163416" lon="17.876328">
        <ele>82.8</ele>
        <time>2015-01-21T20:04:26Z</time>
      </trkpt>
      <trkpt lat="59.163407" lon="17.876214">
        <ele>82.8</ele>
        <time>2015-01-21T20:04:28Z</time>
      </trkpt>
      <trkpt lat="59.163405" lon="17.875874">
        <ele>83</ele>
        <time>2015-01-21T20:04:32Z</time>
      </trkpt>
      <trkpt lat="59.163399" lon="17.875785">
        <ele>83.1</ele>
        <time>2015-01-21T20:04:33Z</time>
      </trkpt>
      <trkpt lat="59.163336" lon="17.875408">
        <ele>83.5</ele>
        <time>2015-01-21T20:04:37Z</time>
      </trkpt>
      <trkpt lat="59.163272" lon="17.875112">
        <ele>83.4</ele>
        <time>2015-01-21T20:04:40Z</time>
      </trkpt>
      <trkpt lat="59.163259" lon="17.875022">
        <ele>83.3</ele>
        <time>2015-01-21T20:04:41Z</time>
      </trkpt>
      <trkpt lat="59.163243" lon="17.87461">
        <ele>82.9</ele>
        <time>2015-01-21T20:04:45Z</time>
      </trkpt>
      <trkpt lat="59.163256" lon="17.87429">
        <ele>82.8</ele>
        <time>2015-01-21T20:04:48Z</time>
      </trkpt>
      <trkpt lat="59.163237" lon="17.873872">
        <ele>82.8</ele>
        <time>2015-01-21T20:04:53Z</time>
      </trkpt>
      <trkpt lat="59.163138" lon="17.873498">
        <ele>83.4</ele>
        <time>2015-01-21T20:04:58Z</time>
      </trkpt>
      <trkpt lat="59.163117" lon="17.873231">
        <ele>83.6</ele>
        <time>2015-01-21T20:05:02Z</time>
      </trkpt>
      <trkpt lat="59.163153" lon="17.872797">
        <ele>83.8</ele>
        <time>2015-01-21T20:05:08Z</time>
      </trkpt>
      <trkpt lat="59.163155" lon="17.8726">
        <ele>83.8</ele>
        <time>2015-01-21T20:05:10Z</time>
      </trkpt>
      <trkpt lat="59.163183" lon="17.872105">
        <ele>84</ele>
        <time>2015-01-21T20:05:16Z</time>
      </trkpt>
      <trkpt lat="59.163243" lon="17.871805">
        <ele>84.3</ele>
        <time>2015-01-21T20:05:20Z</time>
      </trkpt>
      <trkpt lat="59.163312" lon="17.871571">
        <ele>84.6</ele>
        <time>2015-01-21T20:05:23Z</time>
      </trkpt>
      <trkpt lat="59.163354" lon="17.871373">
        <ele>84.9</ele>
        <time>2015-01-21T20:05:25Z</time>
      </trkpt>
      <trkpt lat="59.163373" lon="17.87104">
        <ele>85.3</ele>
        <time>2015-01-21T20:05:29Z</time>
      </trkpt>
      <trkpt lat="59.163488" lon="17.870744">
        <ele>85.6</ele>
        <time>2015-01-21T20:05:34Z</time>
      </trkpt>
      <trkpt lat="59.163682" lon="17.870671">
        <ele>85.7</ele>
        <time>2015-01-21T20:05:41Z</time>
      </trkpt>
      <trkpt lat="59.163712" lon="17.870636">
        <ele>85.7</ele>
        <time>2015-01-21T20:05:43Z</time>
      </trkpt>
      <trkpt lat="59.163752" lon="17.870472">
        <ele>85.9</ele>
        <time>2015-01-21T20:05:48Z</time>
      </trkpt>
      <trkpt lat="59.163683" lon="17.870322">
        <ele>85.9</ele>
        <time>2015-01-21T20:05:55Z</time>
      </trkpt>
      <trkpt lat="59.163654" lon="17.870233">
        <ele>85.8</ele>
        <time>2015-01-21T20:05:59Z</time>
      </trkpt>
      <trkpt lat="59.163608" lon="17.870011">
        <ele>85.5</ele>
        <time>2015-01-21T20:06:04Z</time>
      </trkpt>
      <trkpt lat="59.163574" lon="17.869763">
        <ele>85.2</ele>
        <time>2015-01-21T20:06:09Z</time>
      </trkpt>
      <trkpt lat="59.16359" lon="17.869444">
        <ele>85</ele>
        <time>2015-01-21T20:06:14Z</time>
      </trkpt>
      <trkpt lat="59.163629" lon="17.869177">
        <ele>85</ele>
        <time>2015-01-21T20:06:19Z</time>
      </trkpt>
      <trkpt lat="59.163683" lon="17.868905">
        <ele>85</ele>
        <time>2015-01-21T20:06:25Z</time>
      </trkpt>
      <trkpt lat="59.163699" lon="17.868693">
        <ele>84.9</ele>
        <time>2015-01-21T20:06:30Z</time>
      </trkpt>
      <trkpt lat="59.163748" lon="17.868492">
        <ele>84.7</ele>
        <time>2015-01-21T20:06:36Z</time>
      </trkpt>
      <trkpt lat="59.163713" lon="17.8682">
        <ele>84.3</ele>
        <time>2015-01-21T20:06:43Z</time>
      </trkpt>
      <trkpt lat="59.163701" lon="17.868102">
        <ele>84.2</ele>
        <time>2015-01-21T20:06:45Z</time>
      </trkpt>
      <trkpt lat="59.16373" lon="17.867862">
        <ele>83.9</ele>
        <time>2015-01-21T20:06:51Z</time>
      </trkpt>
      <trkpt lat="59.163695" lon="17.86754">
        <ele>83.5</ele>
        <time>2015-01-21T20:06:57Z</time>
      </trkpt>
      <trkpt lat="59.163665" lon="17.86728">
        <ele>83.2</ele>
        <time>2015-01-21T20:07:01Z</time>
      </trkpt>
      <trkpt lat="59.163584" lon="17.866992">
        <ele>82.9</ele>
        <time>2015-01-21T20:07:05Z</time>
      </trkpt>
      <trkpt lat="59.163488" lon="17.866695">
        <ele>82.4</ele>
        <time>2015-01-21T20:07:09Z</time>
      </trkpt>
      <trkpt lat="59.163463" lon="17.866592">
        <ele>82.2</ele>
        <time>2015-01-21T20:07:10Z</time>
      </trkpt>
      <trkpt lat="59.163446" lon="17.866432">
        <ele>81.9</ele>
        <time>2015-01-21T20:07:12Z</time>
      </trkpt>
      <trkpt lat="59.16346" lon="17.866398">
        <ele>81.9</ele>
        <time>2015-01-21T20:07:16Z</time>
      </trkpt>
      <trkpt lat="59.163514" lon="17.866527">
        <ele>82.1</ele>
        <time>2015-01-21T20:07:19Z</time>
      </trkpt>
      <trkpt lat="59.163531" lon="17.866553">
        <ele>82.2</ele>
        <time>2015-01-21T20:07:20Z</time>
      </trkpt>
      <trkpt lat="59.163544" lon="17.866584">
        <ele>82.3</ele>
        <time>2015-01-21T20:07:21Z</time>
      </trkpt>
      <trkpt lat="59.163638" lon="17.866748">
        <ele>82.5</ele>
        <time>2015-01-21T20:07:28Z</time>
      </trkpt>
      <trkpt lat="59.163658" lon="17.866761">
        <ele>82.6</ele>
        <time>2015-01-21T20:07:29Z</time>
      </trkpt>
      <trkpt lat="59.163644" lon="17.867083">
        <ele>83</ele>
        <time>2015-01-21T20:07:35Z</time>
      </trkpt>
      <trkpt lat="59.163596" lon="17.867621">
        <ele>83.6</ele>
        <time>2015-01-21T20:07:39Z</time>
      </trkpt>
      <trkpt lat="59.163596" lon="17.868028">
        <ele>84.1</ele>
        <time>2015-01-21T20:07:43Z</time>
      </trkpt>
      <trkpt lat="59.16366" lon="17.868241">
        <ele>84.4</ele>
        <time>2015-01-21T20:07:46Z</time>
      </trkpt>
      <trkpt lat="59.163643" lon="17.868669">
        <ele>84.9</ele>
        <time>2015-01-21T20:07:52Z</time>
      </trkpt>
      <trkpt lat="59.163593" lon="17.869065">
        <ele>85</ele>
        <time>2015-01-21T20:07:56Z</time>
      </trkpt>
      <trkpt lat="59.163576" lon="17.869331">
        <ele>85</ele>
        <time>2015-01-21T20:07:59Z</time>
      </trkpt>
      <trkpt lat="59.163564" lon="17.869521">
        <ele>85</ele>
        <time>2015-01-21T20:08:01Z</time>
      </trkpt>
      <trkpt lat="59.16359" lon="17.869865">
        <ele>85.3</ele>
        <time>2015-01-21T20:08:04Z</time>
      </trkpt>
      <trkpt lat="59.163653" lon="17.870389">
        <ele>86</ele>
        <time>2015-01-21T20:08:09Z</time>
      </trkpt>
      <trkpt lat="59.16369" lon="17.870546">
        <ele>85.8</ele>
        <time>2015-01-21T20:08:13Z</time>
      </trkpt>
      <trkpt lat="59.163696" lon="17.870606">
        <ele>85.8</ele>
        <time>2015-01-21T20:08:14Z</time>
      </trkpt>
      <trkpt lat="59.163757" lon="17.870991">
        <ele>85.3</ele>
        <time>2015-01-21T20:08:19Z</time>
      </trkpt>
      <trkpt lat="59.163791" lon="17.871249">
        <ele>85.1</ele>
        <time>2015-01-21T20:08:23Z</time>
      </trkpt>
      <trkpt lat="59.163844" lon="17.871686">
        <ele>84.6</ele>
        <time>2015-01-21T20:08:29Z</time>
      </trkpt>
      <trkpt lat="59.163854" lon="17.872061">
        <ele>84.2</ele>
        <time>2015-01-21T20:08:34Z</time>
      </trkpt>
      <trkpt lat="59.163891" lon="17.872405">
        <ele>83.8</ele>
        <time>2015-01-21T20:08:39Z</time>
      </trkpt>
      <trkpt lat="59.163898" lon="17.872837">
        <ele>83.4</ele>
        <time>2015-01-21T20:08:44Z</time>
      </trkpt>
      <trkpt lat="59.163876" lon="17.873185">
        <ele>82.8</ele>
        <time>2015-01-21T20:08:46Z</time>
      </trkpt>
      <trkpt lat="59.16387" lon="17.873351">
        <ele>82.4</ele>
        <time>2015-01-21T20:08:48Z</time>
      </trkpt>
      <trkpt lat="59.163865" lon="17.87361">
        <ele>81.8</ele>
        <time>2015-01-21T20:08:51Z</time>
      </trkpt>
      <trkpt lat="59.163807" lon="17.874005">
        <ele>81.3</ele>
        <time>2015-01-21T20:08:57Z</time>
      </trkpt>
      <trkpt lat="59.163771" lon="17.874139">
        <ele>81.1</ele>
        <time>2015-01-21T20:09:00Z</time>
      </trkpt>
      <trkpt lat="59.163664" lon="17.874596">
        <ele>81.3</ele>
        <time>2015-01-21T20:09:07Z</time>
      </trkpt>
      <trkpt lat="59.163646" lon="17.874922">
        <ele>81.8</ele>
        <time>2015-01-21T20:09:11Z</time>
      </trkpt>
      <trkpt lat="59.163619" lon="17.875133">
        <ele>82.1</ele>
        <time>2015-01-21T20:09:14Z</time>
      </trkpt>
      <trkpt lat="59.163575" lon="17.875473">
        <ele>82.6</ele>
        <time>2015-01-21T20:09:21Z</time>
      </trkpt>
      <trkpt lat="59.163572" lon="17.875719">
        <ele>82.6</ele>
        <time>2015-01-21T20:09:25Z</time>
      </trkpt>
      <trkpt lat="59.1636" lon="17.875932">
        <ele>82.4</ele>
        <time>2015-01-21T20:09:29Z</time>
      </trkpt>
      <trkpt lat="59.163408" lon="17.876115">
        <ele>82.9</ele>
        <time>2015-01-21T20:09:34Z</time>
      </trkpt>
      <trkpt lat="59.16333" lon="17.876327">
        <ele>83</ele>
        <time>2015-01-21T20:09:38Z</time>
      </trkpt>
      <trkpt lat="59.163294" lon="17.876297">
        <ele>83.1</ele>
        <time>2015-01-21T20:09:40Z</time>
      </trkpt>
      <trkpt lat="59.163259" lon="17.876096">
        <ele>83.3</ele>
        <time>2015-01-21T20:09:45Z</time>
      </trkpt>
      <trkpt lat="59.163321" lon="17.875725">
        <ele>83.4</ele>
        <time>2015-01-21T20:09:50Z</time>
      </trkpt>
      <trkpt lat="59.163286" lon="17.875321">
        <ele>83.6</ele>
        <time>2015-01-21T20:09:55Z</time>
      </trkpt>
      <trkpt lat="59.163235" lon="17.874876">
        <ele>83.2</ele>
        <time>2015-01-21T20:10:00Z</time>
      </trkpt>
      <trkpt lat="59.163263" lon="17.874533">
        <ele>82.8</ele>
        <time>2015-01-21T20:10:04Z</time>
      </trkpt>
      <trkpt lat="59.163276" lon="17.874099">
        <ele>82.7</ele>
        <time>2015-01-21T20:10:09Z</time>
      </trkpt>
      <trkpt lat="59.163199" lon="17.873723">
        <ele>83</ele>
        <time>2015-01-21T20:10:14Z</time>
      </trkpt>
      <trkpt lat="59.163169" lon="17.87357">
        <ele>83.2</ele>
        <time>2015-01-21T20:10:16Z</time>
      </trkpt>
      <trkpt lat="59.163113" lon="17.873334">
        <ele>83.5</ele>
        <time>2015-01-21T20:10:20Z</time>
      </trkpt>
      <trkpt lat="59.163138" lon="17.872825">
        <ele>83.8</ele>
        <time>2015-01-21T20:10:27Z</time>
      </trkpt>
      <trkpt lat="59.163171" lon="17.8724">
        <ele>83.9</ele>
        <time>2015-01-21T20:10:32Z</time>
      </trkpt>
      <trkpt lat="59.163171" lon="17.872319">
        <ele>83.9</ele>
        <time>2015-01-21T20:10:33Z</time>
      </trkpt>
      <trkpt lat="59.163213" lon="17.872012">
        <ele>84.1</ele>
        <time>2015-01-21T20:10:37Z</time>
      </trkpt>
      <trkpt lat="59.163256" lon="17.871882">
        <ele>84.2</ele>
        <time>2015-01-21T20:10:39Z</time>
      </trkpt>
      <trkpt lat="59.163345" lon="17.871445">
        <ele>84.8</ele>
        <time>2015-01-21T20:10:45Z</time>
      </trkpt>
      <trkpt lat="59.163374" lon="17.871122">
        <ele>85.2</ele>
        <time>2015-01-21T20:10:48Z</time>
      </trkpt>
      <trkpt lat="59.163453" lon="17.870816">
        <ele>85.5</ele>
        <time>2015-01-21T20:10:53Z</time>
      </trkpt>
      <trkpt lat="59.163501" lon="17.870746">
        <ele>85.6</ele>
        <time>2015-01-21T20:10:55Z</time>
      </trkpt>
      <trkpt lat="59.163639" lon="17.870594">
        <ele>85.8</ele>
        <time>2015-01-21T20:10:59Z</time>
      </trkpt>
      <trkpt lat="59.163671" lon="17.870479">
        <ele>85.9</ele>
        <time>2015-01-21T20:11:01Z</time>
      </trkpt>
      <trkpt lat="59.163623" lon="17.870048">
        <ele>85.6</ele>
        <time>2015-01-21T20:11:07Z</time>
      </trkpt>
      <trkpt lat="59.163591" lon="17.869571">
        <ele>85</ele>
        <time>2015-01-21T20:11:12Z</time>
      </trkpt>
      <trkpt lat="59.163633" lon="17.868985">
        <ele>85</ele>
        <time>2015-01-21T20:11:19Z</time>
      </trkpt>
      <trkpt lat="59.163637" lon="17.868908">
        <ele>85</ele>
        <time>2015-01-21T20:11:20Z</time>
      </trkpt>
      <trkpt lat="59.163662" lon="17.868704">
        <ele>84.9</ele>
        <time>2015-01-21T20:11:23Z</time>
      </trkpt>
      <trkpt lat="59.163663" lon="17.868231">
        <ele>84.4</ele>
        <time>2015-01-21T20:11:29Z</time>
      </trkpt>
      <trkpt lat="59.16368" lon="17.868">
        <ele>84.1</ele>
        <time>2015-01-21T20:11:32Z</time>
      </trkpt>
      <trkpt lat="59.163698" lon="17.867452">
        <ele>83.4</ele>
        <time>2015-01-21T20:11:38Z</time>
      </trkpt>
      <trkpt lat="59.163654" lon="17.867153">
        <ele>83.1</ele>
        <time>2015-01-21T20:11:43Z</time>
      </trkpt>
      <trkpt lat="59.163631" lon="17.867049">
        <ele>83</ele>
        <time>2015-01-21T20:11:45Z</time>
      </trkpt>
      <trkpt lat="59.163519" lon="17.866661">
        <ele>82.4</ele>
        <time>2015-01-21T20:11:51Z</time>
      </trkpt>
      <trkpt lat="59.163465" lon="17.866285">
        <ele>81.7</ele>
        <time>2015-01-21T20:11:56Z</time>
      </trkpt>
      <trkpt lat="59.163489" lon="17.866281">
        <ele>81.7</ele>
        <time>2015-01-21T20:11:58Z</time>
      </trkpt>
      <trkpt lat="59.163555" lon="17.866572">
        <ele>82.2</ele>
        <time>2015-01-21T20:12:04Z</time>
      </trkpt>
      <trkpt lat="59.163651" lon="17.86672">
        <ele>82.5</ele>
        <time>2015-01-21T20:12:10Z</time>
      </trkpt>
      <trkpt lat="59.163671" lon="17.86677">
        <ele>82.6</ele>
        <time>2015-01-21T20:12:12Z</time>
      </trkpt>
      <trkpt lat="59.163648" lon="17.866905">
        <ele>82.8</ele>
        <time>2015-01-21T20:12:18Z</time>
      </trkpt>
      <trkpt lat="59.163648" lon="17.867415">
        <ele>83.4</ele>
        <time>2015-01-21T20:12:22Z</time>
      </trkpt>
      <trkpt lat="59.163702" lon="17.867911">
        <ele>84</ele>
        <time>2015-01-21T20:12:27Z</time>
      </trkpt>
      <trkpt lat="59.163698" lon="17.867997">
        <ele>84.1</ele>
        <time>2015-01-21T20:12:28Z</time>
      </trkpt>
      <trkpt lat="59.163691" lon="17.86824">
        <ele>84.4</ele>
        <time>2015-01-21T20:12:31Z</time>
      </trkpt>
      <trkpt lat="59.163672" lon="17.868474">
        <ele>84.7</ele>
        <time>2015-01-21T20:12:34Z</time>
      </trkpt>
      <trkpt lat="59.163647" lon="17.868669">
        <ele>84.9</ele>
        <time>2015-01-21T20:12:36Z</time>
      </trkpt>
      <trkpt lat="59.163572" lon="17.869197">
        <ele>85</ele>
        <time>2015-01-21T20:12:41Z</time>
      </trkpt>
      <trkpt lat="59.163553" lon="17.869577">
        <ele>85</ele>
        <time>2015-01-21T20:12:44Z</time>
      </trkpt>
      <trkpt lat="59.163568" lon="17.870183">
        <ele>85.7</ele>
        <time>2015-01-21T20:12:48Z</time>
      </trkpt>
      <trkpt lat="59.163585" lon="17.870204">
        <ele>85.7</ele>
        <time>2015-01-21T20:12:49Z</time>
      </trkpt>
      <trkpt lat="59.163635" lon="17.870295">
        <ele>85.9</ele>
        <time>2015-01-21T20:12:52Z</time>
      </trkpt>
      <trkpt lat="59.163666" lon="17.87045">
        <ele>86</ele>
        <time>2015-01-21T20:12:56Z</time>
      </trkpt>
      <trkpt lat="59.163675" lon="17.871086">
        <ele>85.2</ele>
        <time>2015-01-21T20:13:02Z</time>
      </trkpt>
      <trkpt lat="59.163777" lon="17.871311">
        <ele>85</ele>
        <time>2015-01-21T20:13:06Z</time>
      </trkpt>
      <trkpt lat="59.163829" lon="17.871563">
        <ele>84.7</ele>
        <time>2015-01-21T20:13:10Z</time>
      </trkpt>
      <trkpt lat="59.163843" lon="17.871703">
        <ele>84.6</ele>
        <time>2015-01-21T20:13:12Z</time>
      </trkpt>
      <trkpt lat="59.163884" lon="17.872159">
        <ele>84.1</ele>
        <time>2015-01-21T20:13:18Z</time>
      </trkpt>
      <trkpt lat="59.163927" lon="17.872551">
        <ele>83.8</ele>
        <time>2015-01-21T20:13:23Z</time>
      </trkpt>
      <trkpt lat="59.163899" lon="17.872827">
        <ele>83.4</ele>
        <time>2015-01-21T20:13:27Z</time>
      </trkpt>
      <trkpt lat="59.163799" lon="17.873437">
        <ele>81.9</ele>
        <time>2015-01-21T20:13:32Z</time>
      </trkpt>
      <trkpt lat="59.163783" lon="17.873686">
        <ele>81.3</ele>
        <time>2015-01-21T20:13:34Z</time>
      </trkpt>
      <trkpt lat="59.163758" lon="17.874104">
        <ele>81</ele>
        <time>2015-01-21T20:13:39Z</time>
      </trkpt>
      <trkpt lat="59.163736" lon="17.87438">
        <ele>81.1</ele>
        <time>2015-01-21T20:13:43Z</time>
      </trkpt>
      <trkpt lat="59.163729" lon="17.874508">
        <ele>81.1</ele>
        <time>2015-01-21T20:13:45Z</time>
      </trkpt>
      <trkpt lat="59.163651" lon="17.87504">
        <ele>81.9</ele>
        <time>2015-01-21T20:13:52Z</time>
      </trkpt>
      <trkpt lat="59.163636" lon="17.875224">
        <ele>82.2</ele>
        <time>2015-01-21T20:13:54Z</time>
      </trkpt>
      <trkpt lat="59.163619" lon="17.875441">
        <ele>82.5</ele>
        <time>2015-01-21T20:13:56Z</time>
      </trkpt>
      <trkpt lat="59.16356" lon="17.875822">
        <ele>82.6</ele>
        <time>2015-01-21T20:14:01Z</time>
      </trkpt>
      <trkpt lat="59.163553" lon="17.875981">
        <ele>82.5</ele>
        <time>2015-01-21T20:14:03Z</time>
      </trkpt>
      <trkpt lat="59.163548" lon="17.876188">
        <ele>82.5</ele>
        <time>2015-01-21T20:14:06Z</time>
      </trkpt>
      <trkpt lat="59.163572" lon="17.876508">
        <ele>82.6</ele>
        <time>2015-01-21T20:14:11Z</time>
      </trkpt>
      <trkpt lat="59.16345" lon="17.876696">
        <ele>82.9</ele>
        <time>2015-01-21T20:14:16Z</time>
      </trkpt>
      <trkpt lat="59.163374" lon="17.876666">
        <ele>83</ele>
        <time>2015-01-21T20:14:18Z</time>
      </trkpt>
      <trkpt lat="59.16325" lon="17.876418">
        <ele>83.2</ele>
        <time>2015-01-21T20:14:25Z</time>
      </trkpt>
      <trkpt lat="59.163262" lon="17.876173">
        <ele>83.2</ele>
        <time>2015-01-21T20:14:30Z</time>
      </trkpt>
      <trkpt lat="59.163272" lon="17.876117">
        <ele>83.2</ele>
        <time>2015-01-21T20:14:31Z</time>
      </trkpt>
      <trkpt lat="59.163292" lon="17.87565">
        <ele>83.5</ele>
        <time>2015-01-21T20:14:37Z</time>
      </trkpt>
      <trkpt lat="59.163267" lon="17.875243">
        <ele>83.5</ele>
        <time>2015-01-21T20:14:42Z</time>
      </trkpt>
      <trkpt lat="59.163233" lon="17.87482">
        <ele>83.1</ele>
        <time>2015-01-21T20:14:46Z</time>
      </trkpt>
      <trkpt lat="59.163262" lon="17.87435">
        <ele>82.8</ele>
        <time>2015-01-21T20:14:52Z</time>
      </trkpt>
      <trkpt lat="59.163269" lon="17.874213">
        <ele>82.7</ele>
        <time>2015-01-21T20:14:54Z</time>
      </trkpt>
      <trkpt lat="59.163271" lon="17.874059">
        <ele>82.7</ele>
        <time>2015-01-21T20:14:56Z</time>
      </trkpt>
      <trkpt lat="59.163209" lon="17.873609">
        <ele>83.1</ele>
        <time>2015-01-21T20:15:01Z</time>
      </trkpt>
      <trkpt lat="59.163191" lon="17.873526">
        <ele>83.2</ele>
        <time>2015-01-21T20:15:02Z</time>
      </trkpt>
      <trkpt lat="59.163143" lon="17.87329">
        <ele>83.5</ele>
        <time>2015-01-21T20:15:06Z</time>
      </trkpt>
      <trkpt lat="59.163156" lon="17.87289">
        <ele>83.7</ele>
        <time>2015-01-21T20:15:12Z</time>
      </trkpt>
      <trkpt lat="59.163165" lon="17.872569">
        <ele>83.8</ele>
        <time>2015-01-21T20:15:17Z</time>
      </trkpt>
      <trkpt lat="59.163179" lon="17.872282">
        <ele>83.9</ele>
        <time>2015-01-21T20:15:21Z</time>
      </trkpt>
      <trkpt lat="59.163229" lon="17.87187">
        <ele>84.3</ele>
        <time>2015-01-21T20:15:27Z</time>
      </trkpt>
      <trkpt lat="59.163344" lon="17.871528">
        <ele>84.7</ele>
        <time>2015-01-21T20:15:32Z</time>
      </trkpt>
      <trkpt lat="59.16342" lon="17.871195">
        <ele>85.1</ele>
        <time>2015-01-21T20:15:37Z</time>
      </trkpt>
      <trkpt lat="59.163493" lon="17.870865">
        <ele>85.5</ele>
        <time>2015-01-21T20:15:42Z</time>
      </trkpt>
      <trkpt lat="59.163634" lon="17.870658">
        <ele>85.7</ele>
        <time>2015-01-21T20:15:47Z</time>
      </trkpt>
      <trkpt lat="59.163732" lon="17.87041">
        <ele>86</ele>
        <time>2015-01-21T20:15:51Z</time>
      </trkpt>
      <trkpt lat="59.163679" lon="17.870026">
        <ele>85.5</ele>
        <time>2015-01-21T20:15:56Z</time>
      </trkpt>
      <trkpt lat="59.163641" lon="17.869432">
        <ele>85</ele>
        <time>2015-01-21T20:16:02Z</time>
      </trkpt>
      <trkpt lat="59.163632" lon="17.869131">
        <ele>85</ele>
        <time>2015-01-21T20:16:06Z</time>
      </trkpt>
      <trkpt lat="59.163648" lon="17.869052">
        <ele>85</ele>
        <time>2015-01-21T20:16:07Z</time>
      </trkpt>
      <trkpt lat="59.163705" lon="17.86869">
        <ele>84.9</ele>
        <time>2015-01-21T20:16:12Z</time>
      </trkpt>
      <trkpt lat="59.163707" lon="17.868555">
        <ele>84.8</ele>
        <time>2015-01-21T20:16:14Z</time>
      </trkpt>
      <trkpt lat="59.163714" lon="17.868062">
        <ele>84.2</ele>
        <time>2015-01-21T20:16:19Z</time>
      </trkpt>
      <trkpt lat="59.163719" lon="17.867897">
        <ele>84</ele>
        <time>2015-01-21T20:16:21Z</time>
      </trkpt>
      <trkpt lat="59.163701" lon="17.867701">
        <ele>83.7</ele>
        <time>2015-01-21T20:16:23Z</time>
      </trkpt>
      <trkpt lat="59.163667" lon="17.867325">
        <ele>83.3</ele>
        <time>2015-01-21T20:16:28Z</time>
      </trkpt>
      <trkpt lat="59.163625" lon="17.867091">
        <ele>83</ele>
        <time>2015-01-21T20:16:31Z</time>
      </trkpt>
      <trkpt lat="59.16353" lon="17.866716">
        <ele>82.4</ele>
        <time>2015-01-21T20:16:37Z</time>
      </trkpt>
      <trkpt lat="59.163499" lon="17.866606">
        <ele>82.3</ele>
        <time>2015-01-21T20:16:39Z</time>
      </trkpt>
      <trkpt lat="59.163476" lon="17.866389">
        <ele>81.9</ele>
        <time>2015-01-21T20:16:43Z</time>
      </trkpt>
      <trkpt lat="59.163495" lon="17.866341">
        <ele>81.8</ele>
        <time>2015-01-21T20:16:45Z</time>
      </trkpt>
      <trkpt lat="59.163545" lon="17.866517">
        <ele>82.2</ele>
        <time>2015-01-21T20:16:50Z</time>
      </trkpt>
      <trkpt lat="59.163553" lon="17.866551">
        <ele>82.2</ele>
        <time>2015-01-21T20:16:51Z</time>
      </trkpt>
      <trkpt lat="59.163661" lon="17.866721">
        <ele>82.5</ele>
        <time>2015-01-21T20:16:58Z</time>
      </trkpt>
      <trkpt lat="59.163701" lon="17.866835">
        <ele>82.7</ele>
        <time>2015-01-21T20:17:02Z</time>
      </trkpt>
      <trkpt lat="59.163637" lon="17.867203">
        <ele>83.1</ele>
        <time>2015-01-21T20:17:07Z</time>
      </trkpt>
      <trkpt lat="59.163578" lon="17.867751">
        <ele>83.8</ele>
        <time>2015-01-21T20:17:10Z</time>
      </trkpt>
      <trkpt lat="59.163569" lon="17.86787">
        <ele>83.9</ele>
        <time>2015-01-21T20:17:11Z</time>
      </trkpt>
      <trkpt lat="59.163608" lon="17.86819">
        <ele>84.3</ele>
        <time>2015-01-21T20:17:15Z</time>
      </trkpt>
      <trkpt lat="59.163614" lon="17.868398">
        <ele>84.6</ele>
        <time>2015-01-21T20:17:18Z</time>
      </trkpt>
      <trkpt lat="59.163605" lon="17.868676">
        <ele>84.9</ele>
        <time>2015-01-21T20:17:22Z</time>
      </trkpt>
      <trkpt lat="59.163579" lon="17.868994">
        <ele>85</ele>
        <time>2015-01-21T20:17:26Z</time>
      </trkpt>
      <trkpt lat="59.163561" lon="17.869533">
        <ele>85</ele>
        <time>2015-01-21T20:17:31Z</time>
      </trkpt>
      <trkpt lat="59.163595" lon="17.869889">
        <ele>85.4</ele>
        <time>2015-01-21T20:17:35Z</time>
      </trkpt>
      <trkpt lat="59.163615" lon="17.870049">
        <ele>85.6</ele>
        <time>2015-01-21T20:17:37Z</time>
      </trkpt>
      <trkpt lat="59.163632" lon="17.870246">
        <ele>85.8</ele>
        <time>2015-01-21T20:17:41Z</time>
      </trkpt>
      <trkpt lat="59.163629" lon="17.870652">
        <ele>85.7</ele>
        <time>2015-01-21T20:17:46Z</time>
      </trkpt>
      <trkpt lat="59.163621" lon="17.870745">
        <ele>85.6</ele>
        <time>2015-01-21T20:17:47Z</time>
      </trkpt>
      <trkpt lat="59.163725" lon="17.871066">
        <ele>85.2</ele>
        <time>2015-01-21T20:17:52Z</time>
      </trkpt>
      <trkpt lat="59.163761" lon="17.87118">
        <ele>85.1</ele>
        <time>2015-01-21T20:17:54Z</time>
      </trkpt>
      <trkpt lat="59.163836" lon="17.871575">
        <ele>84.7</ele>
        <time>2015-01-21T20:18:00Z</time>
      </trkpt>
      <trkpt lat="59.163836" lon="17.871641">
        <ele>84.6</ele>
        <time>2015-01-21T20:18:01Z</time>
      </trkpt>
      <trkpt lat="59.163917" lon="17.872193">
        <ele>84.1</ele>
        <time>2015-01-21T20:18:09Z</time>
      </trkpt>
      <trkpt lat="59.163932" lon="17.872478">
        <ele>83.8</ele>
        <time>2015-01-21T20:18:13Z</time>
      </trkpt>
      <trkpt lat="59.163911" lon="17.87274">
        <ele>83.6</ele>
        <time>2015-01-21T20:18:18Z</time>
      </trkpt>
      <trkpt lat="59.163902" lon="17.872796">
        <ele>83.5</ele>
        <time>2015-01-21T20:18:19Z</time>
      </trkpt>
      <trkpt lat="59.163929" lon="17.873098">
        <ele>83.1</ele>
        <time>2015-01-21T20:18:24Z</time>
      </trkpt>
      <trkpt lat="59.163998" lon="17.873351">
        <ele>82.9</ele>
        <time>2015-01-21T20:18:33Z</time>
      </trkpt>
      <trkpt lat="59.163837" lon="17.873833">
        <ele>81.4</ele>
        <time>2015-01-21T20:18:38Z</time>
      </trkpt>
      <trkpt lat="59.163854" lon="17.874117">
        <ele>81.5</ele>
        <time>2015-01-21T20:18:43Z</time>
      </trkpt>
      <trkpt lat="59.163819" lon="17.874511">
        <ele>81.3</ele>
        <time>2015-01-21T20:18:49Z</time>
      </trkpt>
      <trkpt lat="59.163804" lon="17.874768">
        <ele>81.5</ele>
        <time>2015-01-21T20:18:53Z</time>
      </trkpt>
      <trkpt lat="59.163768" lon="17.875101">
        <ele>81.7</ele>
        <time>2015-01-21T20:18:58Z</time>
      </trkpt>
      <trkpt lat="59.163782" lon="17.875379">
        <ele>82.1</ele>
        <time>2015-01-21T20:19:01Z</time>
      </trkpt>
      <trkpt lat="59.163587" lon="17.875646">
        <ele>82.5</ele>
        <time>2015-01-21T20:19:05Z</time>
      </trkpt>
      <trkpt lat="59.163473" lon="17.875687">
        <ele>82.9</ele>
        <time>2015-01-21T20:19:08Z</time>
      </trkpt>
      <trkpt lat="59.163277" lon="17.876155">
        <ele>83.2</ele>
        <time>2015-01-21T20:19:13Z</time>
      </trkpt>
      <trkpt lat="59.16324" lon="17.876149">
        <ele>83.3</ele>
        <time>2015-01-21T20:19:16Z</time>
      </trkpt>
      <trkpt lat="59.163297" lon="17.875847">
        <ele>83.4</ele>
        <time>2015-01-21T20:19:22Z</time>
      </trkpt>
      <trkpt lat="59.163315" lon="17.875463">
        <ele>83.5</ele>
        <time>2015-01-21T20:19:27Z</time>
      </trkpt>
      <trkpt lat="59.163251" lon="17.874991">
        <ele>83.3</ele>
        <time>2015-01-21T20:19:32Z</time>
      </trkpt>
      <trkpt lat="59.163239" lon="17.874793">
        <ele>83.1</ele>
        <time>2015-01-21T20:19:35Z</time>
      </trkpt>
      <trkpt lat="59.163252" lon="17.874603">
        <ele>82.8</ele>
        <time>2015-01-21T20:19:38Z</time>
      </trkpt>
      <trkpt lat="59.163295" lon="17.87412">
        <ele>82.6</ele>
        <time>2015-01-21T20:19:44Z</time>
      </trkpt>
      <trkpt lat="59.163255" lon="17.873802">
        <ele>82.8</ele>
        <time>2015-01-21T20:19:49Z</time>
      </trkpt>
      <trkpt lat="59.16317" lon="17.873561">
        <ele>83.2</ele>
        <time>2015-01-21T20:19:53Z</time>
      </trkpt>
      <trkpt lat="59.163125" lon="17.873289">
        <ele>83.5</ele>
        <time>2015-01-21T20:19:57Z</time>
      </trkpt>
      <trkpt lat="59.163147" lon="17.872876">
        <ele>83.7</ele>
        <time>2015-01-21T20:20:03Z</time>
      </trkpt>
      <trkpt lat="59.163141" lon="17.87258">
        <ele>83.8</ele>
        <time>2015-01-21T20:20:07Z</time>
      </trkpt>
      <trkpt lat="59.163183" lon="17.872137">
        <ele>84</ele>
        <time>2015-01-21T20:20:13Z</time>
      </trkpt>
      <trkpt lat="59.163236" lon="17.871913">
        <ele>84.2</ele>
        <time>2015-01-21T20:20:17Z</time>
      </trkpt>
      <trkpt lat="59.163345" lon="17.871606">
        <ele>84.6</ele>
        <time>2015-01-21T20:20:23Z</time>
      </trkpt>
      <trkpt lat="59.163379" lon="17.871404">
        <ele>84.8</ele>
        <time>2015-01-21T20:20:27Z</time>
      </trkpt>
      <trkpt lat="59.163415" lon="17.871188">
        <ele>85.1</ele>
        <time>2015-01-21T20:20:32Z</time>
      </trkpt>
      <trkpt lat="59.163484" lon="17.871017">
        <ele>85.3</ele>
        <time>2015-01-21T20:20:37Z</time>
      </trkpt>
      <trkpt lat="59.163541" lon="17.870894">
        <ele>85.4</ele>
        <time>2015-01-21T20:20:43Z</time>
      </trkpt>
      <trkpt lat="59.16359" lon="17.87084">
        <ele>85.5</ele>
        <time>2015-01-21T20:20:48Z</time>
      </trkpt>
      <trkpt lat="59.163601" lon="17.87082">
        <ele>85.5</ele>
        <time>2015-01-21T20:20:49Z</time>
      </trkpt>
      <trkpt lat="59.163702" lon="17.870663">
        <ele>85.7</ele>
        <time>2015-01-21T20:20:54Z</time>
      </trkpt>
      <trkpt lat="59.163717" lon="17.870595">
        <ele>85.8</ele>
        <time>2015-01-21T20:20:55Z</time>
      </trkpt>
      <trkpt lat="59.163736" lon="17.87039">
        <ele>86</ele>
        <time>2015-01-21T20:20:59Z</time>
      </trkpt>
      <trkpt lat="59.163686" lon="17.870188">
        <ele>85.7</ele>
        <time>2015-01-21T20:21:03Z</time>
      </trkpt>
      <trkpt lat="59.163679" lon="17.869697">
        <ele>85.1</ele>
        <time>2015-01-21T20:21:09Z</time>
      </trkpt>
      <trkpt lat="59.163715" lon="17.869354">
        <ele>85</ele>
        <time>2015-01-21T20:21:13Z</time>
      </trkpt>
      <trkpt lat="59.163726" lon="17.869195">
        <ele>85</ele>
        <time>2015-01-21T20:21:15Z</time>
      </trkpt>
      <trkpt lat="59.163732" lon="17.86911">
        <ele>85</ele>
        <time>2015-01-21T20:21:16Z</time>
      </trkpt>
      <trkpt lat="59.16377" lon="17.868665">
        <ele>84.9</ele>
        <time>2015-01-21T20:21:21Z</time>
      </trkpt>
      <trkpt lat="59.163765" lon="17.868338">
        <ele>84.5</ele>
        <time>2015-01-21T20:21:24Z</time>
      </trkpt>
      <trkpt lat="59.163728" lon="17.86753">
        <ele>83.5</ele>
        <time>2015-01-21T20:21:29Z</time>
      </trkpt>
      <trkpt lat="59.163718" lon="17.867434">
        <ele>83.4</ele>
        <time>2015-01-21T20:21:30Z</time>
      </trkpt>
      <trkpt lat="59.163676" lon="17.867113">
        <ele>83</ele>
        <time>2015-01-21T20:21:35Z</time>
      </trkpt>
      <trkpt lat="59.163643" lon="17.866987">
        <ele>82.9</ele>
        <time>2015-01-21T20:21:37Z</time>
      </trkpt>
      <trkpt lat="59.163493" lon="17.866483">
        <ele>82.1</ele>
        <time>2015-01-21T20:21:45Z</time>
      </trkpt>
      <trkpt lat="59.163482" lon="17.866376">
        <ele>81.9</ele>
        <time>2015-01-21T20:21:47Z</time>
      </trkpt>
      <trkpt lat="59.163548" lon="17.866502">
        <ele>82.1</ele>
        <time>2015-01-21T20:21:51Z</time>
      </trkpt>
      <trkpt lat="59.163625" lon="17.866664">
        <ele>82.4</ele>
        <time>2015-01-21T20:21:57Z</time>
      </trkpt>
      <trkpt lat="59.163681" lon="17.866823">
        <ele>82.7</ele>
        <time>2015-01-21T20:22:03Z</time>
      </trkpt>
      <trkpt lat="59.163679" lon="17.867125">
        <ele>83</ele>
        <time>2015-01-21T20:22:09Z</time>
      </trkpt>
      <trkpt lat="59.163733" lon="17.867785">
        <ele>83.8</ele>
        <time>2015-01-21T20:22:15Z</time>
      </trkpt>
      <trkpt lat="59.163748" lon="17.868121">
        <ele>84.2</ele>
        <time>2015-01-21T20:22:18Z</time>
      </trkpt>
      <trkpt lat="59.16373" lon="17.868345">
        <ele>84.5</ele>
        <time>2015-01-21T20:22:20Z</time>
      </trkpt>
      <trkpt lat="59.16366" lon="17.868754">
        <ele>85</ele>
        <time>2015-01-21T20:22:24Z</time>
      </trkpt>
      <trkpt lat="59.163596" lon="17.869087">
        <ele>85</ele>
        <time>2015-01-21T20:22:28Z</time>
      </trkpt>
      <trkpt lat="59.163533" lon="17.869469">
        <ele>85</ele>
        <time>2015-01-21T20:22:32Z</time>
      </trkpt>
      <trkpt lat="59.163555" lon="17.869718">
        <ele>85.2</ele>
        <time>2015-01-21T20:22:35Z</time>
      </trkpt>
      <trkpt lat="59.163607" lon="17.870086">
        <ele>85.6</ele>
        <time>2015-01-21T20:22:40Z</time>
      </trkpt>
      <trkpt lat="59.163626" lon="17.870299">
        <ele>85.9</ele>
        <time>2015-01-21T20:22:43Z</time>
      </trkpt>
      <trkpt lat="59.16362" lon="17.870444">
        <ele>86</ele>
        <time>2015-01-21T20:22:45Z</time>
      </trkpt>
      <trkpt lat="59.16362" lon="17.87062">
        <ele>85.8</ele>
        <time>2015-01-21T20:22:47Z</time>
      </trkpt>
      <trkpt lat="59.163646" lon="17.87099">
        <ele>85.3</ele>
        <time>2015-01-21T20:22:51Z</time>
      </trkpt>
      <trkpt lat="59.163753" lon="17.871297">
        <ele>84.9</ele>
        <time>2015-01-21T20:22:56Z</time>
      </trkpt>
      <trkpt lat="59.163776" lon="17.871373">
        <ele>84.9</ele>
        <time>2015-01-21T20:22:57Z</time>
      </trkpt>
      <trkpt lat="59.163815" lon="17.871512">
        <ele>84.8</ele>
        <time>2015-01-21T20:22:59Z</time>
      </trkpt>
      <trkpt lat="59.163849" lon="17.871717">
        <ele>84.6</ele>
        <time>2015-01-21T20:23:02Z</time>
      </trkpt>
      <trkpt lat="59.163854" lon="17.872087">
        <ele>84.1</ele>
        <time>2015-01-21T20:23:06Z</time>
      </trkpt>
      <trkpt lat="59.16387" lon="17.872461">
        <ele>83.8</ele>
        <time>2015-01-21T20:23:10Z</time>
      </trkpt>
      <trkpt lat="59.16388" lon="17.872778">
        <ele>83.5</ele>
        <time>2015-01-21T20:23:14Z</time>
      </trkpt>
      <trkpt lat="59.16381" lon="17.873261">
        <ele>82.4</ele>
        <time>2015-01-21T20:23:19Z</time>
      </trkpt>
      <trkpt lat="59.163807" lon="17.873451">
        <ele>81.9</ele>
        <time>2015-01-21T20:23:21Z</time>
      </trkpt>
      <trkpt lat="59.163802" lon="17.873718">
        <ele>81.3</ele>
        <time>2015-01-21T20:23:24Z</time>
      </trkpt>
      <trkpt lat="59.163811" lon="17.873957">
        <ele>81.3</ele>
        <time>2015-01-21T20:23:27Z</time>
      </trkpt>
      <trkpt lat="59.163819" lon="17.874158">
        <ele>81.3</ele>
        <time>2015-01-21T20:23:30Z</time>
      </trkpt>
      <trkpt lat="59.163745" lon="17.874574">
        <ele>81</ele>
        <time>2015-01-21T20:23:35Z</time>
      </trkpt>
      <trkpt lat="59.163704" lon="17.874747">
        <ele>81.4</ele>
        <time>2015-01-21T20:23:37Z</time>
      </trkpt>
      <trkpt lat="59.163655" lon="17.875134">
        <ele>82</ele>
        <time>2015-01-21T20:23:41Z</time>
      </trkpt>
      <trkpt lat="59.163634" lon="17.875378">
        <ele>82.4</ele>
        <time>2015-01-21T20:23:44Z</time>
      </trkpt>
      <trkpt lat="59.163605" lon="17.875607">
        <ele>82.5</ele>
        <time>2015-01-21T20:23:47Z</time>
      </trkpt>
      <trkpt lat="59.16355" lon="17.875933">
        <ele>82.6</ele>
        <time>2015-01-21T20:23:51Z</time>
      </trkpt>
      <trkpt lat="59.163546" lon="17.876318">
        <ele>82.5</ele>
        <time>2015-01-21T20:23:56Z</time>
      </trkpt>
      <trkpt lat="59.163443" lon="17.876783">
        <ele>82.9</ele>
        <time>2015-01-21T20:24:01Z</time>
      </trkpt>
      <trkpt lat="59.163383" lon="17.876838">
        <ele>83</ele>
        <time>2015-01-21T20:24:02Z</time>
      </trkpt>
      <trkpt lat="59.163292" lon="17.876699">
        <ele>83</ele>
        <time>2015-01-21T20:24:07Z</time>
      </trkpt>
      <trkpt lat="59.163259" lon="17.87663">
        <ele>83.1</ele>
        <time>2015-01-21T20:24:09Z</time>
      </trkpt>
      <trkpt lat="59.163212" lon="17.876381">
        <ele>83.2</ele>
        <time>2015-01-21T20:24:14Z</time>
      </trkpt>
      <trkpt lat="59.163274" lon="17.876046">
        <ele>83.3</ele>
        <time>2015-01-21T20:24:19Z</time>
      </trkpt>
      <trkpt lat="59.163299" lon="17.875648">
        <ele>83.5</ele>
        <time>2015-01-21T20:24:24Z</time>
      </trkpt>
      <trkpt lat="59.163291" lon="17.875332">
        <ele>83.6</ele>
        <time>2015-01-21T20:24:28Z</time>
      </trkpt>
      <trkpt lat="59.163237" lon="17.874945">
        <ele>83.3</ele>
        <time>2015-01-21T20:24:32Z</time>
      </trkpt>
      <trkpt lat="59.163242" lon="17.874767">
        <ele>83</ele>
        <time>2015-01-21T20:24:34Z</time>
      </trkpt>
      <trkpt lat="59.163261" lon="17.874234">
        <ele>82.8</ele>
        <time>2015-01-21T20:24:40Z</time>
      </trkpt>
      <trkpt lat="59.163259" lon="17.874148">
        <ele>82.8</ele>
        <time>2015-01-21T20:24:41Z</time>
      </trkpt>
      <trkpt lat="59.1632" lon="17.873821">
        <ele>83</ele>
        <time>2015-01-21T20:24:45Z</time>
      </trkpt>
      <trkpt lat="59.163143" lon="17.873566">
        <ele>83.3</ele>
        <time>2015-01-21T20:24:48Z</time>
      </trkpt>
      <trkpt lat="59.163103" lon="17.873296">
        <ele>83.6</ele>
        <time>2015-01-21T20:24:51Z</time>
      </trkpt>
      <trkpt lat="59.16311" lon="17.873215">
        <ele>83.6</ele>
        <time>2015-01-21T20:24:52Z</time>
      </trkpt>
      <trkpt lat="59.163123" lon="17.873091">
        <ele>83.6</ele>
        <time>2015-01-21T20:24:54Z</time>
      </trkpt>
      <trkpt lat="59.163136" lon="17.872951">
        <ele>83.7</ele>
        <time>2015-01-21T20:24:56Z</time>
      </trkpt>
      <trkpt lat="59.163175" lon="17.872453">
        <ele>83.9</ele>
        <time>2015-01-21T20:25:03Z</time>
      </trkpt>
      <trkpt lat="59.163202" lon="17.872184">
        <ele>84</ele>
        <time>2015-01-21T20:25:07Z</time>
      </trkpt>
      <trkpt lat="59.163239" lon="17.871873">
        <ele>84.3</ele>
        <time>2015-01-21T20:25:12Z</time>
      </trkpt>
      <trkpt lat="59.163322" lon="17.871545">
        <ele>84.6</ele>
        <time>2015-01-21T20:25:17Z</time>
      </trkpt>
      <trkpt lat="59.163372" lon="17.871239">
        <ele>85</ele>
        <time>2015-01-21T20:25:21Z</time>
      </trkpt>
      <trkpt lat="59.163421" lon="17.87093">
        <ele>85.4</ele>
        <time>2015-01-21T20:25:26Z</time>
      </trkpt>
      <trkpt lat="59.163489" lon="17.870856">
        <ele>85.5</ele>
        <time>2015-01-21T20:25:28Z</time>
      </trkpt>
      <trkpt lat="59.163681" lon="17.870651">
        <ele>85.7</ele>
        <time>2015-01-21T20:25:33Z</time>
      </trkpt>
      <trkpt lat="59.163704" lon="17.870381">
        <ele>86</ele>
        <time>2015-01-21T20:25:37Z</time>
      </trkpt>
      <trkpt lat="59.16369" lon="17.870325">
        <ele>85.9</ele>
        <time>2015-01-21T20:25:38Z</time>
      </trkpt>
      <trkpt lat="59.163633" lon="17.869889">
        <ele>85.4</ele>
        <time>2015-01-21T20:25:44Z</time>
      </trkpt>
      <trkpt lat="59.163646" lon="17.869283">
        <ele>85</ele>
        <time>2015-01-21T20:25:50Z</time>
      </trkpt>
      <trkpt lat="59.163666" lon="17.869113">
        <ele>85</ele>
        <time>2015-01-21T20:25:52Z</time>
      </trkpt>
      <trkpt lat="59.163697" lon="17.868882">
        <ele>85</ele>
        <time>2015-01-21T20:25:55Z</time>
      </trkpt>
      <trkpt lat="59.163747" lon="17.868671">
        <ele>84.9</ele>
        <time>2015-01-21T20:25:58Z</time>
      </trkpt>
      <trkpt lat="59.163723" lon="17.868252">
        <ele>84.4</ele>
        <time>2015-01-21T20:26:03Z</time>
      </trkpt>
      <trkpt lat="59.16373" lon="17.868065">
        <ele>84.2</ele>
        <time>2015-01-21T20:26:05Z</time>
      </trkpt>
      <trkpt lat="59.163697" lon="17.86754">
        <ele>83.5</ele>
        <time>2015-01-21T20:26:11Z</time>
      </trkpt>
      <trkpt lat="59.163639" lon="17.867263">
        <ele>83.2</ele>
        <time>2015-01-21T20:26:15Z</time>
      </trkpt>
      <trkpt lat="59.163597" lon="17.867078">
        <ele>83</ele>
        <time>2015-01-21T20:26:18Z</time>
      </trkpt>
      <trkpt lat="59.163516" lon="17.86675">
        <ele>82.5</ele>
        <time>2015-01-21T20:26:23Z</time>
      </trkpt>
      <trkpt lat="59.163492" lon="17.866539">
        <ele>82.1</ele>
        <time>2015-01-21T20:26:26Z</time>
      </trkpt>
      <trkpt lat="59.163526" lon="17.866462">
        <ele>82.1</ele>
        <time>2015-01-21T20:26:31Z</time>
      </trkpt>
      <trkpt lat="59.163581" lon="17.866575">
        <ele>82.3</ele>
        <time>2015-01-21T20:26:35Z</time>
      </trkpt>
      <trkpt lat="59.163593" lon="17.866597">
        <ele>82.3</ele>
        <time>2015-01-21T20:26:36Z</time>
      </trkpt>
      <trkpt lat="59.163648" lon="17.866749">
        <ele>82.5</ele>
        <time>2015-01-21T20:26:42Z</time>
      </trkpt>
      <trkpt lat="59.163674" lon="17.866849">
        <ele>82.7</ele>
        <time>2015-01-21T20:26:45Z</time>
      </trkpt>
      <trkpt lat="59.163645" lon="17.867323">
        <ele>83.3</ele>
        <time>2015-01-21T20:26:51Z</time>
      </trkpt>
      <trkpt lat="59.163682" lon="17.867745">
        <ele>83.8</ele>
        <time>2015-01-21T20:26:55Z</time>
      </trkpt>
      <trkpt lat="59.163556" lon="17.86852">
        <ele>84.7</ele>
        <time>2015-01-21T20:27:02Z</time>
      </trkpt>
      <trkpt lat="59.163562" lon="17.868703">
        <ele>84.9</ele>
        <time>2015-01-21T20:27:04Z</time>
      </trkpt>
      <trkpt lat="59.163583" lon="17.869111">
        <ele>85</ele>
        <time>2015-01-21T20:27:09Z</time>
      </trkpt>
      <trkpt lat="59.163566" lon="17.869487">
        <ele>85</ele>
        <time>2015-01-21T20:27:13Z</time>
      </trkpt>
      <trkpt lat="59.163574" lon="17.869671">
        <ele>85.1</ele>
        <time>2015-01-21T20:27:15Z</time>
      </trkpt>
      <trkpt lat="59.163627" lon="17.870032">
        <ele>85.5</ele>
        <time>2015-01-21T20:27:20Z</time>
      </trkpt>
      <trkpt lat="59.163628" lon="17.870511">
        <ele>85.9</ele>
        <time>2015-01-21T20:27:26Z</time>
      </trkpt>
      <trkpt lat="59.163723" lon="17.870894">
        <ele>85.4</ele>
        <time>2015-01-21T20:27:31Z</time>
      </trkpt>
      <trkpt lat="59.163869" lon="17.871131">
        <ele>85.3</ele>
        <time>2015-01-21T20:27:35Z</time>
      </trkpt>
      <trkpt lat="59.163989" lon="17.871444">
        <ele>85.1</ele>
        <time>2015-01-21T20:27:40Z</time>
      </trkpt>
      <trkpt lat="59.164065" lon="17.871714">
        <ele>84.8</ele>
        <time>2015-01-21T20:27:44Z</time>
      </trkpt>
      <trkpt lat="59.164119" lon="17.871957">
        <ele>84.6</ele>
        <time>2015-01-21T20:27:47Z</time>
      </trkpt>
      <trkpt lat="59.164154" lon="17.872306">
        <ele>84.3</ele>
        <time>2015-01-21T20:27:51Z</time>
      </trkpt>
      <trkpt lat="59.1641" lon="17.872696">
        <ele>84</ele>
        <time>2015-01-21T20:27:56Z</time>
      </trkpt>
      <trkpt lat="59.164103" lon="17.873063">
        <ele>83.6</ele>
        <time>2015-01-21T20:28:00Z</time>
      </trkpt>
      <trkpt lat="59.164093" lon="17.873283">
        <ele>83.3</ele>
        <time>2015-01-21T20:28:02Z</time>
      </trkpt>
      <trkpt lat="59.164056" lon="17.873532">
        <ele>82.8</ele>
        <time>2015-01-21T20:28:05Z</time>
      </trkpt>
      <trkpt lat="59.164007" lon="17.874014">
        <ele>82.2</ele>
        <time>2015-01-21T20:28:09Z</time>
      </trkpt>
      <trkpt lat="59.163786" lon="17.874637">
        <ele>81.2</ele>
        <time>2015-01-21T20:28:13Z</time>
      </trkpt>
      <trkpt lat="59.16364" lon="17.875235">
        <ele>82.2</ele>
        <time>2015-01-21T20:28:18Z</time>
      </trkpt>
      <trkpt lat="59.163601" lon="17.875518">
        <ele>82.5</ele>
        <time>2015-01-21T20:28:21Z</time>
      </trkpt>
      <trkpt lat="59.163582" lon="17.87577">
        <ele>82.5</ele>
        <time>2015-01-21T20:28:24Z</time>
      </trkpt>
      <trkpt lat="59.163548" lon="17.876205">
        <ele>82.5</ele>
        <time>2015-01-21T20:28:29Z</time>
      </trkpt>
      <trkpt lat="59.163518" lon="17.876595">
        <ele>82.7</ele>
        <time>2015-01-21T20:28:33Z</time>
      </trkpt>
      <trkpt lat="59.163423" lon="17.87676">
        <ele>82.9</ele>
        <time>2015-01-21T20:28:36Z</time>
      </trkpt>
      <trkpt lat="59.163311" lon="17.876712">
        <ele>83</ele>
        <time>2015-01-21T20:28:41Z</time>
      </trkpt>
      <trkpt lat="59.163242" lon="17.876298">
        <ele>83.2</ele>
        <time>2015-01-21T20:28:50Z</time>
      </trkpt>
      <trkpt lat="59.163273" lon="17.875931">
        <ele>83.4</ele>
        <time>2015-01-21T20:28:55Z</time>
      </trkpt>
      <trkpt lat="59.163274" lon="17.875496">
        <ele>83.7</ele>
        <time>2015-01-21T20:29:00Z</time>
      </trkpt>
      <trkpt lat="59.163261" lon="17.875399">
        <ele>83.7</ele>
        <time>2015-01-21T20:29:01Z</time>
      </trkpt>
      <trkpt lat="59.163231" lon="17.875043">
        <ele>83.4</ele>
        <time>2015-01-21T20:29:05Z</time>
      </trkpt>
      <trkpt lat="59.163223" lon="17.874609">
        <ele>82.9</ele>
        <time>2015-01-21T20:29:10Z</time>
      </trkpt>
      <trkpt lat="59.163259" lon="17.874053">
        <ele>82.8</ele>
        <time>2015-01-21T20:29:16Z</time>
      </trkpt>
      <trkpt lat="59.163184" lon="17.873761">
        <ele>83</ele>
        <time>2015-01-21T20:29:21Z</time>
      </trkpt>
      <trkpt lat="59.163146" lon="17.873597">
        <ele>83.3</ele>
        <time>2015-01-21T20:29:23Z</time>
      </trkpt>
      <trkpt lat="59.163115" lon="17.873267">
        <ele>83.6</ele>
        <time>2015-01-21T20:29:27Z</time>
      </trkpt>
      <trkpt lat="59.163144" lon="17.872793">
        <ele>83.8</ele>
        <time>2015-01-21T20:29:32Z</time>
      </trkpt>
      <trkpt lat="59.163163" lon="17.872585">
        <ele>83.8</ele>
        <time>2015-01-21T20:29:34Z</time>
      </trkpt>
      <trkpt lat="59.163172" lon="17.872409">
        <ele>83.9</ele>
        <time>2015-01-21T20:29:36Z</time>
      </trkpt>
      <trkpt lat="59.163176" lon="17.87223">
        <ele>83.9</ele>
        <time>2015-01-21T20:29:38Z</time>
      </trkpt>
      <trkpt lat="59.163191" lon="17.87207">
        <ele>84</ele>
        <time>2015-01-21T20:29:40Z</time>
      </trkpt>
      <trkpt lat="59.163268" lon="17.871702">
        <ele>84.5</ele>
        <time>2015-01-21T20:29:45Z</time>
      </trkpt>
      <trkpt lat="59.163327" lon="17.871525">
        <ele>84.7</ele>
        <time>2015-01-21T20:29:47Z</time>
      </trkpt>
      <trkpt lat="59.163365" lon="17.871052">
        <ele>85.2</ele>
        <time>2015-01-21T20:29:52Z</time>
      </trkpt>
      <trkpt lat="59.1635" lon="17.870813">
        <ele>85.5</ele>
        <time>2015-01-21T20:29:57Z</time>
      </trkpt>
      <trkpt lat="59.163614" lon="17.870608">
        <ele>85.8</ele>
        <time>2015-01-21T20:30:01Z</time>
      </trkpt>
      <trkpt lat="59.163672" lon="17.870249">
        <ele>85.8</ele>
        <time>2015-01-21T20:30:05Z</time>
      </trkpt>
      <trkpt lat="59.163648" lon="17.870078">
        <ele>85.6</ele>
        <time>2015-01-21T20:30:07Z</time>
      </trkpt>
      <trkpt lat="59.163617" lon="17.869878">
        <ele>85.4</ele>
        <time>2015-01-21T20:30:09Z</time>
      </trkpt>
      <trkpt lat="59.163589" lon="17.869518">
        <ele>85</ele>
        <time>2015-01-21T20:30:13Z</time>
      </trkpt>
      <trkpt lat="59.163639" lon="17.869157">
        <ele>85</ele>
        <time>2015-01-21T20:30:17Z</time>
      </trkpt>
      <trkpt lat="59.163642" lon="17.868736">
        <ele>85</ele>
        <time>2015-01-21T20:30:22Z</time>
      </trkpt>
      <trkpt lat="59.163704" lon="17.868309">
        <ele>84.5</ele>
        <time>2015-01-21T20:30:27Z</time>
      </trkpt>
      <trkpt lat="59.16371" lon="17.868033">
        <ele>84.1</ele>
        <time>2015-01-21T20:30:30Z</time>
      </trkpt>
      <trkpt lat="59.163702" lon="17.867847">
        <ele>83.9</ele>
        <time>2015-01-21T20:30:32Z</time>
      </trkpt>
      <trkpt lat="59.163664" lon="17.867527">
        <ele>83.5</ele>
        <time>2015-01-21T20:30:36Z</time>
      </trkpt>
      <trkpt lat="59.163615" lon="17.867271">
        <ele>83.2</ele>
        <time>2015-01-21T20:30:39Z</time>
      </trkpt>
      <trkpt lat="59.163573" lon="17.867098">
        <ele>83</ele>
        <time>2015-01-21T20:30:41Z</time>
      </trkpt>
      <trkpt lat="59.163474" lon="17.866745">
        <ele>82.5</ele>
        <time>2015-01-21T20:30:46Z</time>
      </trkpt>
      <trkpt lat="59.163424" lon="17.866499">
        <ele>82</ele>
        <time>2015-01-21T20:30:49Z</time>
      </trkpt>
      <trkpt lat="59.163452" lon="17.866468">
        <ele>82</ele>
        <time>2015-01-21T20:30:53Z</time>
      </trkpt>
      <trkpt lat="59.163581" lon="17.866697">
        <ele>82.4</ele>
        <time>2015-01-21T20:31:00Z</time>
      </trkpt>
      <trkpt lat="59.163659" lon="17.866865">
        <ele>82.7</ele>
        <time>2015-01-21T20:31:05Z</time>
      </trkpt>
      <trkpt lat="59.163707" lon="17.867074">
        <ele>83</ele>
        <time>2015-01-21T20:31:10Z</time>
      </trkpt>
      <trkpt lat="59.163758" lon="17.867507">
        <ele>83.5</ele>
        <time>2015-01-21T20:31:14Z</time>
      </trkpt>
      <trkpt lat="59.16376" lon="17.867818">
        <ele>83.9</ele>
        <time>2015-01-21T20:31:17Z</time>
      </trkpt>
      <trkpt lat="59.163678" lon="17.868414">
        <ele>84.6</ele>
        <time>2015-01-21T20:31:22Z</time>
      </trkpt>
      <trkpt lat="59.163648" lon="17.868616">
        <ele>84.8</ele>
        <time>2015-01-21T20:31:24Z</time>
      </trkpt>
      <trkpt lat="59.163544" lon="17.869416">
        <ele>85</ele>
        <time>2015-01-21T20:31:31Z</time>
      </trkpt>
      <trkpt lat="59.16353" lon="17.869527">
        <ele>85</ele>
        <time>2015-01-21T20:31:32Z</time>
      </trkpt>
      <trkpt lat="59.16351" lon="17.870073">
        <ele>85.6</ele>
        <time>2015-01-21T20:31:37Z</time>
      </trkpt>
      <trkpt lat="59.163548" lon="17.870483">
        <ele>85.9</ele>
        <time>2015-01-21T20:31:42Z</time>
      </trkpt>
      <trkpt lat="59.163527" lon="17.870656">
        <ele>85.7</ele>
        <time>2015-01-21T20:31:44Z</time>
      </trkpt>
      <trkpt lat="59.163578" lon="17.871033">
        <ele>85.3</ele>
        <time>2015-01-21T20:31:48Z</time>
      </trkpt>
      <trkpt lat="59.163633" lon="17.871233">
        <ele>85</ele>
        <time>2015-01-21T20:31:50Z</time>
      </trkpt>
      <trkpt lat="59.163654" lon="17.871339">
        <ele>84.9</ele>
        <time>2015-01-21T20:31:51Z</time>
      </trkpt>
      <trkpt lat="59.163741" lon="17.871804">
        <ele>84.3</ele>
        <time>2015-01-21T20:31:56Z</time>
      </trkpt>
      <trkpt lat="59.163753" lon="17.871876">
        <ele>84.3</ele>
        <time>2015-01-21T20:31:57Z</time>
      </trkpt>
      <trkpt lat="59.163782" lon="17.872077">
        <ele>84</ele>
        <time>2015-01-21T20:32:00Z</time>
      </trkpt>
      <trkpt lat="59.163837" lon="17.872264">
        <ele>83.9</ele>
        <time>2015-01-21T20:32:03Z</time>
      </trkpt>
      <trkpt lat="59.163873" lon="17.872635">
        <ele>83.6</ele>
        <time>2015-01-21T20:32:07Z</time>
      </trkpt>
      <trkpt lat="59.16388" lon="17.872828">
        <ele>83.4</ele>
        <time>2015-01-21T20:32:09Z</time>
      </trkpt>
      <trkpt lat="59.163827" lon="17.873228">
        <ele>82.5</ele>
        <time>2015-01-21T20:32:13Z</time>
      </trkpt>
      <trkpt lat="59.163815" lon="17.873641">
        <ele>81.6</ele>
        <time>2015-01-21T20:32:17Z</time>
      </trkpt>
      <trkpt lat="59.163782" lon="17.874295">
        <ele>81.2</ele>
        <time>2015-01-21T20:32:24Z</time>
      </trkpt>
      <trkpt lat="59.163773" lon="17.874394">
        <ele>81.1</ele>
        <time>2015-01-21T20:32:25Z</time>
      </trkpt>
      <trkpt lat="59.163711" lon="17.874733">
        <ele>81.3</ele>
        <time>2015-01-21T20:32:29Z</time>
      </trkpt>
      <trkpt lat="59.163644" lon="17.875157">
        <ele>82.1</ele>
        <time>2015-01-21T20:32:34Z</time>
      </trkpt>
      <trkpt lat="59.163631" lon="17.87535">
        <ele>82.3</ele>
        <time>2015-01-21T20:32:36Z</time>
      </trkpt>
      <trkpt lat="59.163618" lon="17.875833">
        <ele>82.4</ele>
        <time>2015-01-21T20:32:41Z</time>
      </trkpt>
      <trkpt lat="59.163606" lon="17.875991">
        <ele>82.4</ele>
        <time>2015-01-21T20:32:43Z</time>
      </trkpt>
      <trkpt lat="59.163576" lon="17.876406">
        <ele>82.5</ele>
        <time>2015-01-21T20:32:48Z</time>
      </trkpt>
      <trkpt lat="59.16352" lon="17.876723">
        <ele>82.8</ele>
        <time>2015-01-21T20:32:52Z</time>
      </trkpt>
      <trkpt lat="59.163391" lon="17.876748">
        <ele>82.9</ele>
        <time>2015-01-21T20:32:57Z</time>
      </trkpt>
      <trkpt lat="59.163358" lon="17.87668">
        <ele>83</ele>
        <time>2015-01-21T20:32:59Z</time>
      </trkpt>
      <trkpt lat="59.163256" lon="17.876383">
        <ele>83.2</ele>
        <time>2015-01-21T20:33:05Z</time>
      </trkpt>
      <trkpt lat="59.163282" lon="17.876097">
        <ele>83.2</ele>
        <time>2015-01-21T20:33:09Z</time>
      </trkpt>
      <trkpt lat="59.163291" lon="17.875724">
        <ele>83.4</ele>
        <time>2015-01-21T20:33:13Z</time>
      </trkpt>
      <trkpt lat="59.163224" lon="17.875188">
        <ele>83.6</ele>
        <time>2015-01-21T20:33:18Z</time>
      </trkpt>
      <trkpt lat="59.163233" lon="17.874898">
        <ele>83.2</ele>
        <time>2015-01-21T20:33:21Z</time>
      </trkpt>
      <trkpt lat="59.16324" lon="17.874629">
        <ele>82.9</ele>
        <time>2015-01-21T20:33:25Z</time>
      </trkpt>
      <trkpt lat="59.163233" lon="17.874221">
        <ele>82.9</ele>
        <time>2015-01-21T20:33:29Z</time>
      </trkpt>
      <trkpt lat="59.163224" lon="17.87395">
        <ele>82.9</ele>
        <time>2015-01-21T20:33:32Z</time>
      </trkpt>
      <trkpt lat="59.163171" lon="17.87368">
        <ele>83.1</ele>
        <time>2015-01-21T20:33:36Z</time>
      </trkpt>
      <trkpt lat="59.163116" lon="17.873487">
        <ele>83.4</ele>
        <time>2015-01-21T20:33:39Z</time>
      </trkpt>
      <trkpt lat="59.163107" lon="17.873089">
        <ele>83.7</ele>
        <time>2015-01-21T20:33:44Z</time>
      </trkpt>
      <trkpt lat="59.163145" lon="17.872653">
        <ele>83.8</ele>
        <time>2015-01-21T20:33:49Z</time>
      </trkpt>
      <trkpt lat="59.163136" lon="17.872287">
        <ele>83.9</ele>
        <time>2015-01-21T20:33:53Z</time>
      </trkpt>
      <trkpt lat="59.163232" lon="17.87185">
        <ele>84.3</ele>
        <time>2015-01-21T20:33:58Z</time>
      </trkpt>
      <trkpt lat="59.163361" lon="17.871508">
        <ele>84.7</ele>
        <time>2015-01-21T20:34:02Z</time>
      </trkpt>
      <trkpt lat="59.163404" lon="17.871066">
        <ele>85.2</ele>
        <time>2015-01-21T20:34:07Z</time>
      </trkpt>
      <trkpt lat="59.163397" lon="17.870884">
        <ele>85.4</ele>
        <time>2015-01-21T20:34:09Z</time>
      </trkpt>
      <trkpt lat="59.163558" lon="17.870691">
        <ele>85.7</ele>
        <time>2015-01-21T20:34:13Z</time>
      </trkpt>
      <trkpt lat="59.163733" lon="17.870282">
        <ele>85.8</ele>
        <time>2015-01-21T20:34:20Z</time>
      </trkpt>
      <trkpt lat="59.16371" lon="17.8702">
        <ele>85.7</ele>
        <time>2015-01-21T20:34:21Z</time>
      </trkpt>
      <trkpt lat="59.16369" lon="17.869745">
        <ele>85.2</ele>
        <time>2015-01-21T20:34:27Z</time>
      </trkpt>
      <trkpt lat="59.163682" lon="17.869669">
        <ele>85.1</ele>
        <time>2015-01-21T20:34:28Z</time>
      </trkpt>
      <trkpt lat="59.163696" lon="17.869292">
        <ele>85</ele>
        <time>2015-01-21T20:34:32Z</time>
      </trkpt>
      <trkpt lat="59.163651" lon="17.8688">
        <ele>85</ele>
        <time>2015-01-21T20:34:37Z</time>
      </trkpt>
      <trkpt lat="59.163689" lon="17.868433">
        <ele>84.6</ele>
        <time>2015-01-21T20:34:41Z</time>
      </trkpt>
      <trkpt lat="59.163694" lon="17.868058">
        <ele>84.2</ele>
        <time>2015-01-21T20:34:45Z</time>
      </trkpt>
      <trkpt lat="59.163692" lon="17.867783">
        <ele>83.8</ele>
        <time>2015-01-21T20:34:48Z</time>
      </trkpt>
      <trkpt lat="59.16367" lon="17.867545">
        <ele>83.6</ele>
        <time>2015-01-21T20:34:51Z</time>
      </trkpt>
      <trkpt lat="59.163633" lon="17.867363">
        <ele>83.3</ele>
        <time>2015-01-21T20:34:54Z</time>
      </trkpt>
      <trkpt lat="59.163516" lon="17.866933">
        <ele>82.8</ele>
        <time>2015-01-21T20:35:00Z</time>
      </trkpt>
      <trkpt lat="59.163493" lon="17.866827">
        <ele>82.6</ele>
        <time>2015-01-21T20:35:01Z</time>
      </trkpt>
      <trkpt lat="59.163457" lon="17.866536">
        <ele>82.1</ele>
        <time>2015-01-21T20:35:04Z</time>
      </trkpt>
      <trkpt lat="59.163506" lon="17.866476">
        <ele>82.1</ele>
        <time>2015-01-21T20:35:08Z</time>
      </trkpt>
      <trkpt lat="59.163598" lon="17.866648">
        <ele>82.4</ele>
        <time>2015-01-21T20:35:13Z</time>
      </trkpt>
      <trkpt lat="59.163683" lon="17.866825">
        <ele>82.7</ele>
        <time>2015-01-21T20:35:19Z</time>
      </trkpt>
      <trkpt lat="59.163675" lon="17.866889">
        <ele>82.7</ele>
        <time>2015-01-21T20:35:21Z</time>
      </trkpt>
      <trkpt lat="59.163664" lon="17.866982">
        <ele>82.9</ele>
        <time>2015-01-21T20:35:24Z</time>
      </trkpt>
      <trkpt lat="59.163661" lon="17.867295">
        <ele>83.3</ele>
        <time>2015-01-21T20:35:28Z</time>
      </trkpt>
      <trkpt lat="59.163619" lon="17.867827">
        <ele>83.9</ele>
        <time>2015-01-21T20:35:32Z</time>
      </trkpt>
      <trkpt lat="59.163592" lon="17.868114">
        <ele>84.2</ele>
        <time>2015-01-21T20:35:34Z</time>
      </trkpt>
      <trkpt lat="59.163583" lon="17.868485">
        <ele>84.7</ele>
        <time>2015-01-21T20:35:38Z</time>
      </trkpt>
      <trkpt lat="59.163572" lon="17.86873">
        <ele>85</ele>
        <time>2015-01-21T20:35:41Z</time>
      </trkpt>
      <trkpt lat="59.163513" lon="17.869027">
        <ele>85</ele>
        <time>2015-01-21T20:35:44Z</time>
      </trkpt>
      <trkpt lat="59.163464" lon="17.86954">
        <ele>85</ele>
        <time>2015-01-21T20:35:50Z</time>
      </trkpt>
      <trkpt lat="59.163459" lon="17.869636">
        <ele>85.1</ele>
        <time>2015-01-21T20:35:51Z</time>
      </trkpt>
      <trkpt lat="59.163468" lon="17.869913">
        <ele>85.4</ele>
        <time>2015-01-21T20:35:54Z</time>
      </trkpt>
      <trkpt lat="59.163551" lon="17.870168">
        <ele>85.7</ele>
        <time>2015-01-21T20:35:58Z</time>
      </trkpt>
      <trkpt lat="59.163585" lon="17.870487">
        <ele>85.9</ele>
        <time>2015-01-21T20:36:03Z</time>
      </trkpt>
      <trkpt lat="59.163617" lon="17.870765">
        <ele>85.6</ele>
        <time>2015-01-21T20:36:06Z</time>
      </trkpt>
      <trkpt lat="59.163688" lon="17.871082">
        <ele>85.2</ele>
        <time>2015-01-21T20:36:10Z</time>
      </trkpt>
      <trkpt lat="59.163705" lon="17.871574">
        <ele>84.6</ele>
        <time>2015-01-21T20:36:15Z</time>
      </trkpt>
      <trkpt lat="59.163718" lon="17.871758">
        <ele>84.4</ele>
        <time>2015-01-21T20:36:17Z</time>
      </trkpt>
      <trkpt lat="59.163721" lon="17.872253">
        <ele>83.8</ele>
        <time>2015-01-21T20:36:22Z</time>
      </trkpt>
      <trkpt lat="59.163728" lon="17.872776">
        <ele>83.2</ele>
        <time>2015-01-21T20:36:27Z</time>
      </trkpt>
      <trkpt lat="59.163737" lon="17.873041">
        <ele>82.7</ele>
        <time>2015-01-21T20:36:30Z</time>
      </trkpt>
      <trkpt lat="59.163717" lon="17.873284">
        <ele>82.2</ele>
        <time>2015-01-21T20:36:33Z</time>
      </trkpt>
      <trkpt lat="59.163747" lon="17.873705">
        <ele>81.1</ele>
        <time>2015-01-21T20:36:38Z</time>
      </trkpt>
      <trkpt lat="59.163755" lon="17.873792">
        <ele>81</ele>
        <time>2015-01-21T20:36:39Z</time>
      </trkpt>
      <trkpt lat="59.163764" lon="17.874044">
        <ele>81.1</ele>
        <time>2015-01-21T20:36:42Z</time>
      </trkpt>
      <trkpt lat="59.163749" lon="17.874411">
        <ele>81</ele>
        <time>2015-01-21T20:36:46Z</time>
      </trkpt>
      <trkpt lat="59.163641" lon="17.874801">
        <ele>81.7</ele>
        <time>2015-01-21T20:36:51Z</time>
      </trkpt>
      <trkpt lat="59.163612" lon="17.875318">
        <ele>82.4</ele>
        <time>2015-01-21T20:36:56Z</time>
      </trkpt>
      <trkpt lat="59.16361" lon="17.875498">
        <ele>82.5</ele>
        <time>2015-01-21T20:36:58Z</time>
      </trkpt>
      <trkpt lat="59.163608" lon="17.87565">
        <ele>82.5</ele>
        <time>2015-01-21T20:37:00Z</time>
      </trkpt>
      <trkpt lat="59.163593" lon="17.875783">
        <ele>82.5</ele>
        <time>2015-01-21T20:37:02Z</time>
      </trkpt>
      <trkpt lat="59.163592" lon="17.87606">
        <ele>82.4</ele>
        <time>2015-01-21T20:37:06Z</time>
      </trkpt>
      <trkpt lat="59.163564" lon="17.8766">
        <ele>82.7</ele>
        <time>2015-01-21T20:37:13Z</time>
      </trkpt>
      <trkpt lat="59.163546" lon="17.87666">
        <ele>82.7</ele>
        <time>2015-01-21T20:37:14Z</time>
      </trkpt>
      <trkpt lat="59.163365" lon="17.876747">
        <ele>83</ele>
        <time>2015-01-21T20:37:19Z</time>
      </trkpt>
      <trkpt lat="59.163311" lon="17.876639">
        <ele>83</ele>
        <time>2015-01-21T20:37:23Z</time>
      </trkpt>
      <trkpt lat="59.163242" lon="17.876445">
        <ele>83.2</ele>
        <time>2015-01-21T20:37:28Z</time>
      </trkpt>
      <trkpt lat="59.163252" lon="17.876338">
        <ele>83.2</ele>
        <time>2015-01-21T20:37:30Z</time>
      </trkpt>
      <trkpt lat="59.163307" lon="17.875848">
        <ele>83.3</ele>
        <time>2015-01-21T20:37:37Z</time>
      </trkpt>
      <trkpt lat="59.163285" lon="17.875489">
        <ele>83.6</ele>
        <time>2015-01-21T20:37:41Z</time>
      </trkpt>
      <trkpt lat="59.163272" lon="17.875385">
        <ele>83.7</ele>
        <time>2015-01-21T20:37:42Z</time>
      </trkpt>
      <trkpt lat="59.16325" lon="17.875112">
        <ele>83.4</ele>
        <time>2015-01-21T20:37:45Z</time>
      </trkpt>
      <trkpt lat="59.163223" lon="17.874797">
        <ele>83.2</ele>
        <time>2015-01-21T20:37:49Z</time>
      </trkpt>
      <trkpt lat="59.163258" lon="17.874299">
        <ele>82.8</ele>
        <time>2015-01-21T20:37:55Z</time>
      </trkpt>
      <trkpt lat="59.163211" lon="17.873918">
        <ele>82.9</ele>
        <time>2015-01-21T20:38:00Z</time>
      </trkpt>
      <trkpt lat="59.163111" lon="17.873487">
        <ele>83.4</ele>
        <time>2015-01-21T20:38:08Z</time>
      </trkpt>
      <trkpt lat="59.163098" lon="17.87315">
        <ele>83.7</ele>
        <time>2015-01-21T20:38:12Z</time>
      </trkpt>
      <trkpt lat="59.163134" lon="17.872737">
        <ele>83.8</ele>
        <time>2015-01-21T20:38:17Z</time>
      </trkpt>
      <trkpt lat="59.163147" lon="17.872497">
        <ele>83.9</ele>
        <time>2015-01-21T20:38:20Z</time>
      </trkpt>
      <trkpt lat="59.163172" lon="17.87206">
        <ele>84</ele>
        <time>2015-01-21T20:38:25Z</time>
      </trkpt>
      <trkpt lat="59.163262" lon="17.87176">
        <ele>84.4</ele>
        <time>2015-01-21T20:38:29Z</time>
      </trkpt>
      <trkpt lat="59.163303" lon="17.871661">
        <ele>84.5</ele>
        <time>2015-01-21T20:38:30Z</time>
      </trkpt>
      <trkpt lat="59.163376" lon="17.871394">
        <ele>84.8</ele>
        <time>2015-01-21T20:38:33Z</time>
      </trkpt>
      <trkpt lat="59.163458" lon="17.870981">
        <ele>85.3</ele>
        <time>2015-01-21T20:38:38Z</time>
      </trkpt>
      <trkpt lat="59.163539" lon="17.870854">
        <ele>85.5</ele>
        <time>2015-01-21T20:38:41Z</time>
      </trkpt>
      <trkpt lat="59.163594" lon="17.870789">
        <ele>85.6</ele>
        <time>2015-01-21T20:38:43Z</time>
      </trkpt>
      <trkpt lat="59.163727" lon="17.870493">
        <ele>85.9</ele>
        <time>2015-01-21T20:38:48Z</time>
      </trkpt>
      <trkpt lat="59.163706" lon="17.870241">
        <ele>85.8</ele>
        <time>2015-01-21T20:38:52Z</time>
      </trkpt>
      <trkpt lat="59.163686" lon="17.870169">
        <ele>85.7</ele>
        <time>2015-01-21T20:38:53Z</time>
      </trkpt>
      <trkpt lat="59.163672" lon="17.870089">
        <ele>85.6</ele>
        <time>2015-01-21T20:38:54Z</time>
      </trkpt>
      <trkpt lat="59.163679" lon="17.869683">
        <ele>85.1</ele>
        <time>2015-01-21T20:38:59Z</time>
      </trkpt>
      <trkpt lat="59.163681" lon="17.86951">
        <ele>85</ele>
        <time>2015-01-21T20:39:01Z</time>
      </trkpt>
      <trkpt lat="59.1637" lon="17.869064">
        <ele>85</ele>
        <time>2015-01-21T20:39:06Z</time>
      </trkpt>
      <trkpt lat="59.163695" lon="17.868981">
        <ele>85</ele>
        <time>2015-01-21T20:39:07Z</time>
      </trkpt>
      <trkpt lat="59.163683" lon="17.868832">
        <ele>85</ele>
        <time>2015-01-21T20:39:09Z</time>
      </trkpt>
      <trkpt lat="59.163688" lon="17.86857">
        <ele>84.8</ele>
        <time>2015-01-21T20:39:13Z</time>
      </trkpt>
      <trkpt lat="59.163703" lon="17.86838">
        <ele>84.6</ele>
        <time>2015-01-21T20:39:15Z</time>
      </trkpt>
      <trkpt lat="59.163695" lon="17.867903">
        <ele>84</ele>
        <time>2015-01-21T20:39:20Z</time>
      </trkpt>
      <trkpt lat="59.163671" lon="17.867437">
        <ele>83.4</ele>
        <time>2015-01-21T20:39:26Z</time>
      </trkpt>
      <trkpt lat="59.16365" lon="17.867369">
        <ele>83.3</ele>
        <time>2015-01-21T20:39:27Z</time>
      </trkpt>
      <trkpt lat="59.163551" lon="17.867024">
        <ele>82.9</ele>
        <time>2015-01-21T20:39:33Z</time>
      </trkpt>
      <trkpt lat="59.163478" lon="17.866664">
        <ele>82.3</ele>
        <time>2015-01-21T20:39:38Z</time>
      </trkpt>
      <trkpt lat="59.163505" lon="17.866545">
        <ele>82.2</ele>
        <time>2015-01-21T20:39:43Z</time>
      </trkpt>
      <trkpt lat="59.163556" lon="17.86666">
        <ele>82.4</ele>
        <time>2015-01-21T20:39:48Z</time>
      </trkpt>
      <trkpt lat="59.163598" lon="17.866717">
        <ele>82.5</ele>
        <time>2015-01-21T20:39:51Z</time>
      </trkpt>
      <trkpt lat="59.163641" lon="17.866749">
        <ele>82.5</ele>
        <time>2015-01-21T20:39:55Z</time>
      </trkpt>
      <trkpt lat="59.163675" lon="17.866906">
        <ele>82.8</ele>
        <time>2015-01-21T20:40:01Z</time>
      </trkpt>
      <trkpt lat="59.163653" lon="17.867054">
        <ele>83</ele>
        <time>2015-01-21T20:40:05Z</time>
      </trkpt>
      <trkpt lat="59.163618" lon="17.86749">
        <ele>83.5</ele>
        <time>2015-01-21T20:40:10Z</time>
      </trkpt>
      <trkpt lat="59.163592" lon="17.867946">
        <ele>84</ele>
        <time>2015-01-21T20:40:14Z</time>
      </trkpt>
      <trkpt lat="59.16359" lon="17.868145">
        <ele>84.3</ele>
        <time>2015-01-21T20:40:16Z</time>
      </trkpt>
      <trkpt lat="59.163573" lon="17.868532">
        <ele>84.7</ele>
        <time>2015-01-21T20:40:21Z</time>
      </trkpt>
      <trkpt lat="59.163562" lon="17.868919">
        <ele>85</ele>
        <time>2015-01-21T20:40:26Z</time>
      </trkpt>
      <trkpt lat="59.163526" lon="17.869214">
        <ele>85</ele>
        <time>2015-01-21T20:40:29Z</time>
      </trkpt>
      <trkpt lat="59.163526" lon="17.8697">
        <ele>85.1</ele>
        <time>2015-01-21T20:40:34Z</time>
      </trkpt>
      <trkpt lat="59.163549" lon="17.87007">
        <ele>85.6</ele>
        <time>2015-01-21T20:40:38Z</time>
      </trkpt>
      <trkpt lat="59.163552" lon="17.870363">
        <ele>85.9</ele>
        <time>2015-01-21T20:40:42Z</time>
      </trkpt>
      <trkpt lat="59.163541" lon="17.8705">
        <ele>85.9</ele>
        <time>2015-01-21T20:40:44Z</time>
      </trkpt>
      <trkpt lat="59.16362" lon="17.870868">
        <ele>85.5</ele>
        <time>2015-01-21T20:40:49Z</time>
      </trkpt>
      <trkpt lat="59.163674" lon="17.87117">
        <ele>85.1</ele>
        <time>2015-01-21T20:40:53Z</time>
      </trkpt>
      <trkpt lat="59.163682" lon="17.871254">
        <ele>85</ele>
        <time>2015-01-21T20:40:54Z</time>
      </trkpt>
      <trkpt lat="59.163702" lon="17.871601">
        <ele>84.6</ele>
        <time>2015-01-21T20:40:58Z</time>
      </trkpt>
      <trkpt lat="59.163708" lon="17.871788">
        <ele>84.4</ele>
        <time>2015-01-21T20:41:00Z</time>
      </trkpt>
      <trkpt lat="59.163721" lon="17.871946">
        <ele>84.2</ele>
        <time>2015-01-21T20:41:02Z</time>
      </trkpt>
      <trkpt lat="59.163749" lon="17.872399">
        <ele>83.6</ele>
        <time>2015-01-21T20:41:07Z</time>
      </trkpt>
      <trkpt lat="59.163752" lon="17.872503">
        <ele>83.5</ele>
        <time>2015-01-21T20:41:08Z</time>
      </trkpt>
      <trkpt lat="59.163797" lon="17.872847">
        <ele>83.2</ele>
        <time>2015-01-21T20:41:12Z</time>
      </trkpt>
      <trkpt lat="59.163822" lon="17.873018">
        <ele>83</ele>
        <time>2015-01-21T20:41:15Z</time>
      </trkpt>
      <trkpt lat="59.163872" lon="17.873428">
        <ele>82.2</ele>
        <time>2015-01-21T20:41:21Z</time>
      </trkpt>
      <trkpt lat="59.16392" lon="17.873684">
        <ele>81.9</ele>
        <time>2015-01-21T20:41:25Z</time>
      </trkpt>
      <trkpt lat="59.163941" lon="17.87409">
        <ele>81.9</ele>
        <time>2015-01-21T20:41:31Z</time>
      </trkpt>
      <trkpt lat="59.163884" lon="17.874366">
        <ele>81.6</ele>
        <time>2015-01-21T20:41:35Z</time>
      </trkpt>
      <trkpt lat="59.163821" lon="17.874809">
        <ele>81.6</ele>
        <time>2015-01-21T20:41:40Z</time>
      </trkpt>
      <trkpt lat="59.163815" lon="17.875252">
        <ele>82.1</ele>
        <time>2015-01-21T20:41:45Z</time>
      </trkpt>
      <trkpt lat="59.163783" lon="17.875469">
        <ele>82.1</ele>
        <time>2015-01-21T20:41:48Z</time>
      </trkpt>
      <trkpt lat="59.163729" lon="17.87594">
        <ele>82.1</ele>
        <time>2015-01-21T20:41:54Z</time>
      </trkpt>
      <trkpt lat="59.163646" lon="17.87641">
        <ele>82.4</ele>
        <time>2015-01-21T20:41:58Z</time>
      </trkpt>
      <trkpt lat="59.163442" lon="17.876802">
        <ele>82.9</ele>
        <time>2015-01-21T20:42:03Z</time>
      </trkpt>
      <trkpt lat="59.163344" lon="17.876649">
        <ele>83</ele>
        <time>2015-01-21T20:42:07Z</time>
      </trkpt>
      <trkpt lat="59.163275" lon="17.876466">
        <ele>83.1</ele>
        <time>2015-01-21T20:42:11Z</time>
      </trkpt>
      <trkpt lat="59.163259" lon="17.876196">
        <ele>83.2</ele>
        <time>2015-01-21T20:42:16Z</time>
      </trkpt>
      <trkpt lat="59.163301" lon="17.875893">
        <ele>83.3</ele>
        <time>2015-01-21T20:42:20Z</time>
      </trkpt>
      <trkpt lat="59.163274" lon="17.875459">
        <ele>83.7</ele>
        <time>2015-01-21T20:42:25Z</time>
      </trkpt>
      <trkpt lat="59.163264" lon="17.875198">
        <ele>83.5</ele>
        <time>2015-01-21T20:42:28Z</time>
      </trkpt>
      <trkpt lat="59.163226" lon="17.874852">
        <ele>83.2</ele>
        <time>2015-01-21T20:42:33Z</time>
      </trkpt>
      <trkpt lat="59.163232" lon="17.874299">
        <ele>82.9</ele>
        <time>2015-01-21T20:42:40Z</time>
      </trkpt>
      <trkpt lat="59.163202" lon="17.874007">
        <ele>83</ele>
        <time>2015-01-21T20:42:44Z</time>
      </trkpt>
      <trkpt lat="59.163165" lon="17.873828">
        <ele>83.1</ele>
        <time>2015-01-21T20:42:47Z</time>
      </trkpt>
      <trkpt lat="59.163131" lon="17.873711">
        <ele>83.3</ele>
        <time>2015-01-21T20:42:49Z</time>
      </trkpt>
      <trkpt lat="59.163121" lon="17.873657">
        <ele>83.3</ele>
        <time>2015-01-21T20:42:50Z</time>
      </trkpt>
      <trkpt lat="59.163094" lon="17.873252">
        <ele>83.6</ele>
        <time>2015-01-21T20:42:56Z</time>
      </trkpt>
      <trkpt lat="59.163118" lon="17.872909">
        <ele>83.8</ele>
        <time>2015-01-21T20:43:01Z</time>
      </trkpt>
      <trkpt lat="59.163153" lon="17.872481">
        <ele>83.9</ele>
        <time>2015-01-21T20:43:07Z</time>
      </trkpt>
      <trkpt lat="59.163212" lon="17.872213">
        <ele>83.9</ele>
        <time>2015-01-21T20:43:11Z</time>
      </trkpt>
      <trkpt lat="59.163299" lon="17.871777">
        <ele>84.4</ele>
        <time>2015-01-21T20:43:17Z</time>
      </trkpt>
      <trkpt lat="59.163336" lon="17.871527">
        <ele>84.7</ele>
        <time>2015-01-21T20:43:20Z</time>
      </trkpt>
      <trkpt lat="59.163388" lon="17.871039">
        <ele>85.3</ele>
        <time>2015-01-21T20:43:26Z</time>
      </trkpt>
      <trkpt lat="59.16348" lon="17.870861">
        <ele>85.5</ele>
        <time>2015-01-21T20:43:31Z</time>
      </trkpt>
      <trkpt lat="59.163497" lon="17.870814">
        <ele>85.5</ele>
        <time>2015-01-21T20:43:32Z</time>
      </trkpt>
      <trkpt lat="59.16361" lon="17.870389">
        <ele>86</ele>
        <time>2015-01-21T20:43:39Z</time>
      </trkpt>
      <trkpt lat="59.163606" lon="17.870058">
        <ele>85.6</ele>
        <time>2015-01-21T20:43:44Z</time>
      </trkpt>
      <trkpt lat="59.163592" lon="17.869654">
        <ele>85.1</ele>
        <time>2015-01-21T20:43:49Z</time>
      </trkpt>
      <trkpt lat="59.163592" lon="17.869566">
        <ele>85</ele>
        <time>2015-01-21T20:43:50Z</time>
      </trkpt>
      <trkpt lat="59.163655" lon="17.869116">
        <ele>85</ele>
        <time>2015-01-21T20:43:56Z</time>
      </trkpt>
      <trkpt lat="59.163662" lon="17.869054">
        <ele>85</ele>
        <time>2015-01-21T20:43:57Z</time>
      </trkpt>
      <trkpt lat="59.16368" lon="17.86873">
        <ele>85</ele>
        <time>2015-01-21T20:44:01Z</time>
      </trkpt>
      <trkpt lat="59.16372" lon="17.868239">
        <ele>84.4</ele>
        <time>2015-01-21T20:44:07Z</time>
      </trkpt>
      <trkpt lat="59.163713" lon="17.86766">
        <ele>83.7</ele>
        <time>2015-01-21T20:44:13Z</time>
      </trkpt>
      <trkpt lat="59.163659" lon="17.867243">
        <ele>83.2</ele>
        <time>2015-01-21T20:44:19Z</time>
      </trkpt>
      <trkpt lat="59.163616" lon="17.86713">
        <ele>83.1</ele>
        <time>2015-01-21T20:44:21Z</time>
      </trkpt>
      <trkpt lat="59.163574" lon="17.866986">
        <ele>82.9</ele>
        <time>2015-01-21T20:44:23Z</time>
      </trkpt>
      <trkpt lat="59.163498" lon="17.86654">
        <ele>82.2</ele>
        <time>2015-01-21T20:44:30Z</time>
      </trkpt>
      <trkpt lat="59.163527" lon="17.86648">
        <ele>82.1</ele>
        <time>2015-01-21T20:44:33Z</time>
      </trkpt>
      <trkpt lat="59.163539" lon="17.866523">
        <ele>82.2</ele>
        <time>2015-01-21T20:44:35Z</time>
      </trkpt>
      <trkpt lat="59.163608" lon="17.866673">
        <ele>82.4</ele>
        <time>2015-01-21T20:44:41Z</time>
      </trkpt>
      <trkpt lat="59.163628" lon="17.866691">
        <ele>82.5</ele>
        <time>2015-01-21T20:44:42Z</time>
      </trkpt>
      <trkpt lat="59.16367" lon="17.866814">
        <ele>82.6</ele>
        <time>2015-01-21T20:44:46Z</time>
      </trkpt>
      <trkpt lat="59.163685" lon="17.866972">
        <ele>82.9</ele>
        <time>2015-01-21T20:44:51Z</time>
      </trkpt>
      <trkpt lat="59.163747" lon="17.86726">
        <ele>83.2</ele>
        <time>2015-01-21T20:44:56Z</time>
      </trkpt>
      <trkpt lat="59.163857" lon="17.867608">
        <ele>83.9</ele>
        <time>2015-01-21T20:45:01Z</time>
      </trkpt>
      <trkpt lat="59.163916" lon="17.867958">
        <ele>84.4</ele>
        <time>2015-01-21T20:45:06Z</time>
      </trkpt>
      <trkpt lat="59.163923" lon="17.868236">
        <ele>84.8</ele>
        <time>2015-01-21T20:45:10Z</time>
      </trkpt>
      <trkpt lat="59.163905" lon="17.868587">
        <ele>85.2</ele>
        <time>2015-01-21T20:45:14Z</time>
      </trkpt>
      <trkpt lat="59.163909" lon="17.868772">
        <ele>85.4</ele>
        <time>2015-01-21T20:45:16Z</time>
      </trkpt>
      <trkpt lat="59.163945" lon="17.869235">
        <ele>85.5</ele>
        <time>2015-01-21T20:45:21Z</time>
      </trkpt>
      <trkpt lat="59.16396" lon="17.869579">
        <ele>85.5</ele>
        <time>2015-01-21T20:45:26Z</time>
      </trkpt>
      <trkpt lat="59.163963" lon="17.869703">
        <ele>85.6</ele>
        <time>2015-01-21T20:45:28Z</time>
      </trkpt>
      <trkpt lat="59.164022" lon="17.870244">
        <ele>85.9</ele>
        <time>2015-01-21T20:45:34Z</time>
      </trkpt>
      <trkpt lat="59.164065" lon="17.870868">
        <ele>85.7</ele>
        <time>2015-01-21T20:45:39Z</time>
      </trkpt>
      <trkpt lat="59.16406" lon="17.870979">
        <ele>85.6</ele>
        <time>2015-01-21T20:45:40Z</time>
      </trkpt>
      <trkpt lat="59.164037" lon="17.871144">
        <ele>85.4</ele>
        <time>2015-01-21T20:45:42Z</time>
      </trkpt>
      <trkpt lat="59.163989" lon="17.87177">
        <ele>84.7</ele>
        <time>2015-01-21T20:45:48Z</time>
      </trkpt>
      <trkpt lat="59.163992" lon="17.871875">
        <ele>84.5</ele>
        <time>2015-01-21T20:45:49Z</time>
      </trkpt>
      <trkpt lat="59.163974" lon="17.872187">
        <ele>84.2</ele>
        <time>2015-01-21T20:45:52Z</time>
      </trkpt>
      <trkpt lat="59.163906" lon="17.872529">
        <ele>83.8</ele>
        <time>2015-01-21T20:45:54Z</time>
      </trkpt>
      <trkpt lat="59.163878" lon="17.872781">
        <ele>83.4</ele>
        <time>2015-01-21T20:45:56Z</time>
      </trkpt>
      <trkpt lat="59.163814" lon="17.87315">
        <ele>82.6</ele>
        <time>2015-01-21T20:46:00Z</time>
      </trkpt>
      <trkpt lat="59.163778" lon="17.873595">
        <ele>81.5</ele>
        <time>2015-01-21T20:46:04Z</time>
      </trkpt>
      <trkpt lat="59.163774" lon="17.873991">
        <ele>81.1</ele>
        <time>2015-01-21T20:46:08Z</time>
      </trkpt>
      <trkpt lat="59.163769" lon="17.874081">
        <ele>81.1</ele>
        <time>2015-01-21T20:46:09Z</time>
      </trkpt>
      <trkpt lat="59.163717" lon="17.874535">
        <ele>81.1</ele>
        <time>2015-01-21T20:46:14Z</time>
      </trkpt>
      <trkpt lat="59.163689" lon="17.87467">
        <ele>81.3</ele>
        <time>2015-01-21T20:46:17Z</time>
      </trkpt>
      <trkpt lat="59.163639" lon="17.87502">
        <ele>81.9</ele>
        <time>2015-01-21T20:46:22Z</time>
      </trkpt>
      <trkpt lat="59.163592" lon="17.875641">
        <ele>82.5</ele>
        <time>2015-01-21T20:46:29Z</time>
      </trkpt>
      <trkpt lat="59.163585" lon="17.875931">
        <ele>82.5</ele>
        <time>2015-01-21T20:46:34Z</time>
      </trkpt>
      <trkpt lat="59.163577" lon="17.876104">
        <ele>82.5</ele>
        <time>2015-01-21T20:46:36Z</time>
      </trkpt>
      <trkpt lat="59.16356" lon="17.876329">
        <ele>82.5</ele>
        <time>2015-01-21T20:46:38Z</time>
      </trkpt>
      <trkpt lat="59.163541" lon="17.876631">
        <ele>82.7</ele>
        <time>2015-01-21T20:46:41Z</time>
      </trkpt>
      <trkpt lat="59.163414" lon="17.87673">
        <ele>82.9</ele>
        <time>2015-01-21T20:46:45Z</time>
      </trkpt>
      <trkpt lat="59.163371" lon="17.876732">
        <ele>83</ele>
        <time>2015-01-21T20:46:46Z</time>
      </trkpt>
      <trkpt lat="59.163342" lon="17.876696">
        <ele>83</ele>
        <time>2015-01-21T20:46:48Z</time>
      </trkpt>
      <trkpt lat="59.163292" lon="17.876545">
        <ele>83.1</ele>
        <time>2015-01-21T20:46:52Z</time>
      </trkpt>
      <trkpt lat="59.163274" lon="17.876356">
        <ele>83.1</ele>
        <time>2015-01-21T20:46:57Z</time>
      </trkpt>
      <trkpt lat="59.163311" lon="17.875964">
        <ele>83.2</ele>
        <time>2015-01-21T20:47:02Z</time>
      </trkpt>
      <trkpt lat="59.163286" lon="17.875522">
        <ele>83.6</ele>
        <time>2015-01-21T20:47:07Z</time>
      </trkpt>
      <trkpt lat="59.163259" lon="17.875104">
        <ele>83.4</ele>
        <time>2015-01-21T20:47:12Z</time>
      </trkpt>
      <trkpt lat="59.163255" lon="17.875029">
        <ele>83.3</ele>
        <time>2015-01-21T20:47:13Z</time>
      </trkpt>
      <trkpt lat="59.16324" lon="17.874709">
        <ele>83</ele>
        <time>2015-01-21T20:47:17Z</time>
      </trkpt>
      <trkpt lat="59.16326" lon="17.87426">
        <ele>82.8</ele>
        <time>2015-01-21T20:47:22Z</time>
      </trkpt>
      <trkpt lat="59.163205" lon="17.873901">
        <ele>83</ele>
        <time>2015-01-21T20:47:27Z</time>
      </trkpt>
      <trkpt lat="59.163106" lon="17.873517">
        <ele>83.4</ele>
        <time>2015-01-21T20:47:33Z</time>
      </trkpt>
      <trkpt lat="59.16314" lon="17.873209">
        <ele>83.5</ele>
        <time>2015-01-21T20:47:37Z</time>
      </trkpt>
      <trkpt lat="59.163146" lon="17.873049">
        <ele>83.6</ele>
        <time>2015-01-21T20:47:39Z</time>
      </trkpt>
      <trkpt lat="59.163178" lon="17.872657">
        <ele>83.8</ele>
        <time>2015-01-21T20:47:44Z</time>
      </trkpt>
      <trkpt lat="59.163185" lon="17.872424">
        <ele>83.9</ele>
        <time>2015-01-21T20:47:47Z</time>
      </trkpt>
      <trkpt lat="59.163187" lon="17.872157">
        <ele>84</ele>
        <time>2015-01-21T20:47:50Z</time>
      </trkpt>
      <trkpt lat="59.163232" lon="17.871915">
        <ele>84.2</ele>
        <time>2015-01-21T20:47:53Z</time>
      </trkpt>
      <trkpt lat="59.163267" lon="17.871747">
        <ele>84.4</ele>
        <time>2015-01-21T20:47:55Z</time>
      </trkpt>
      <trkpt lat="59.16334" lon="17.871475">
        <ele>84.7</ele>
        <time>2015-01-21T20:47:58Z</time>
      </trkpt>
      <trkpt lat="59.163389" lon="17.871099">
        <ele>85.2</ele>
        <time>2015-01-21T20:48:03Z</time>
      </trkpt>
      <trkpt lat="59.163478" lon="17.870805">
        <ele>85.5</ele>
        <time>2015-01-21T20:48:08Z</time>
      </trkpt>
      <trkpt lat="59.163554" lon="17.870589">
        <ele>85.8</ele>
        <time>2015-01-21T20:48:12Z</time>
      </trkpt>
      <trkpt lat="59.163631" lon="17.870298">
        <ele>85.9</ele>
        <time>2015-01-21T20:48:16Z</time>
      </trkpt>
      <trkpt lat="59.16362" lon="17.870066">
        <ele>85.6</ele>
        <time>2015-01-21T20:48:19Z</time>
      </trkpt>
      <trkpt lat="59.163585" lon="17.869818">
        <ele>85.3</ele>
        <time>2015-01-21T20:48:22Z</time>
      </trkpt>
      <trkpt lat="59.163586" lon="17.869329">
        <ele>85</ele>
        <time>2015-01-21T20:48:27Z</time>
      </trkpt>
      <trkpt lat="59.163655" lon="17.868919">
        <ele>85</ele>
        <time>2015-01-21T20:48:32Z</time>
      </trkpt>
      <trkpt lat="59.163669" lon="17.868758">
        <ele>85</ele>
        <time>2015-01-21T20:48:34Z</time>
      </trkpt>
      <trkpt lat="59.163701" lon="17.868445">
        <ele>84.6</ele>
        <time>2015-01-21T20:48:38Z</time>
      </trkpt>
      <trkpt lat="59.163717" lon="17.867898">
        <ele>84</ele>
        <time>2015-01-21T20:48:44Z</time>
      </trkpt>
      <trkpt lat="59.163703" lon="17.867742">
        <ele>83.8</ele>
        <time>2015-01-21T20:48:46Z</time>
      </trkpt>
      <trkpt lat="59.163638" lon="17.867243">
        <ele>83.2</ele>
        <time>2015-01-21T20:48:52Z</time>
      </trkpt>
      <trkpt lat="59.163613" lon="17.867129">
        <ele>83.1</ele>
        <time>2015-01-21T20:48:53Z</time>
      </trkpt>
      <trkpt lat="59.16343" lon="17.866466">
        <ele>82</ele>
        <time>2015-01-21T20:49:00Z</time>
      </trkpt>
      <trkpt lat="59.163412" lon="17.866406">
        <ele>81.9</ele>
        <time>2015-01-21T20:49:01Z</time>
      </trkpt>
      <trkpt lat="59.163409" lon="17.866369">
        <ele>81.8</ele>
        <time>2015-01-21T20:49:03Z</time>
      </trkpt>
      <trkpt lat="59.16344" lon="17.866383">
        <ele>81.8</ele>
        <time>2015-01-21T20:49:05Z</time>
      </trkpt>
      <trkpt lat="59.163485" lon="17.866566">
        <ele>82.2</ele>
        <time>2015-01-21T20:49:09Z</time>
      </trkpt>
      <trkpt lat="59.163631" lon="17.866725">
        <ele>82.5</ele>
        <time>2015-01-21T20:49:15Z</time>
      </trkpt>
      <trkpt lat="59.163702" lon="17.866859">
        <ele>82.7</ele>
        <time>2015-01-21T20:49:20Z</time>
      </trkpt>
      <trkpt lat="59.163683" lon="17.867145">
        <ele>83.1</ele>
        <time>2015-01-21T20:49:25Z</time>
      </trkpt>
      <trkpt lat="59.163651" lon="17.867759">
        <ele>83.8</ele>
        <time>2015-01-21T20:49:30Z</time>
      </trkpt>
      <trkpt lat="59.163648" lon="17.868129">
        <ele>84.3</ele>
        <time>2015-01-21T20:49:33Z</time>
      </trkpt>
      <trkpt lat="59.163653" lon="17.868548">
        <ele>84.8</ele>
        <time>2015-01-21T20:49:37Z</time>
      </trkpt>
      <trkpt lat="59.163628" lon="17.868831">
        <ele>85</ele>
        <time>2015-01-21T20:49:40Z</time>
      </trkpt>
      <trkpt lat="59.163618" lon="17.869017">
        <ele>85</ele>
        <time>2015-01-21T20:49:42Z</time>
      </trkpt>
      <trkpt lat="59.163581" lon="17.869572">
        <ele>85</ele>
        <time>2015-01-21T20:49:47Z</time>
      </trkpt>
      <trkpt lat="59.163595" lon="17.869674">
        <ele>85.1</ele>
        <time>2015-01-21T20:49:48Z</time>
      </trkpt>
      <trkpt lat="59.163635" lon="17.869961">
        <ele>85.5</ele>
        <time>2015-01-21T20:49:51Z</time>
      </trkpt>
      <trkpt lat="59.163659" lon="17.87011">
        <ele>85.6</ele>
        <time>2015-01-21T20:49:53Z</time>
      </trkpt>
      <trkpt lat="59.163679" lon="17.870458">
        <ele>86</ele>
        <time>2015-01-21T20:49:58Z</time>
      </trkpt>
      <trkpt lat="59.163814" lon="17.870895">
        <ele>85.5</ele>
        <time>2015-01-21T20:50:03Z</time>
      </trkpt>
      <trkpt lat="59.163932" lon="17.871278">
        <ele>85.2</ele>
        <time>2015-01-21T20:50:08Z</time>
      </trkpt>
      <trkpt lat="59.163944" lon="17.871361">
        <ele>85.1</ele>
        <time>2015-01-21T20:50:09Z</time>
      </trkpt>
      <trkpt lat="59.164026" lon="17.871729">
        <ele>84.8</ele>
        <time>2015-01-21T20:50:14Z</time>
      </trkpt>
      <trkpt lat="59.164105" lon="17.871974">
        <ele>84.6</ele>
        <time>2015-01-21T20:50:17Z</time>
      </trkpt>
      <trkpt lat="59.164205" lon="17.87233">
        <ele>84.4</ele>
        <time>2015-01-21T20:50:22Z</time>
      </trkpt>
      <trkpt lat="59.164227" lon="17.87249">
        <ele>84.4</ele>
        <time>2015-01-21T20:50:25Z</time>
      </trkpt>
      <trkpt lat="59.164349" lon="17.872945">
        <ele>84.4</ele>
        <time>2015-01-21T20:50:32Z</time>
      </trkpt>
      <trkpt lat="59.164419" lon="17.873249">
        <ele>84.4</ele>
        <time>2015-01-21T20:50:37Z</time>
      </trkpt>
      <trkpt lat="59.164423" lon="17.873484">
        <ele>84.4</ele>
        <time>2015-01-21T20:50:41Z</time>
      </trkpt>
      <trkpt lat="59.164413" lon="17.873824">
        <ele>84.2</ele>
        <time>2015-01-21T20:50:46Z</time>
      </trkpt>
      <trkpt lat="59.164497" lon="17.874195">
        <ele>84.6</ele>
        <time>2015-01-21T20:50:52Z</time>
      </trkpt>
      <trkpt lat="59.164547" lon="17.874431">
        <ele>84.8</ele>
        <time>2015-01-21T20:50:57Z</time>
      </trkpt>
      <trkpt lat="59.164652" lon="17.874779">
        <ele>85.4</ele>
        <time>2015-01-21T20:51:03Z</time>
      </trkpt>
      <trkpt lat="59.164667" lon="17.874875">
        <ele>85.5</ele>
        <time>2015-01-21T20:51:05Z</time>
      </trkpt>
      <trkpt lat="59.164486" lon="17.875136">
        <ele>84.6</ele>
        <time>2015-01-21T20:51:10Z</time>
      </trkpt>
      <trkpt lat="59.164383" lon="17.87522">
        <ele>84.2</ele>
        <time>2015-01-21T20:51:13Z</time>
      </trkpt>
      <trkpt lat="59.164003" lon="17.875615">
        <ele>82.9</ele>
        <time>2015-01-21T20:51:18Z</time>
      </trkpt>
      <trkpt lat="59.163588" lon="17.875994">
        <ele>82.4</ele>
        <time>2015-01-21T20:51:24Z</time>
      </trkpt>
      <trkpt lat="59.163556" lon="17.876021">
        <ele>82.5</ele>
        <time>2015-01-21T20:51:26Z</time>
      </trkpt>
      <trkpt lat="59.163556" lon="17.876021">
        <ele>82.5</ele>
        <time>2015-01-21T20:51:27Z</time>
      </trkpt>
      <trkpt lat="59.163556" lon="17.876021">
        <ele>82.5</ele>
        <time>2015-01-21T20:53:48Z</time>
      </trkpt>
      <trkpt lat="59.163225" lon="17.876337">
        <ele>83.2</ele>
        <time>2015-01-21T20:53:49Z</time>
      </trkpt>
      <trkpt lat="59.163229" lon="17.876339">
        <ele>83.2</ele>
        <time>2015-01-21T20:53:50Z</time>
      </trkpt>
      <trkpt lat="59.16323" lon="17.876341">
        <ele>83.2</ele>
        <time>2015-01-21T20:53:51Z</time>
      </trkpt>
      <trkpt lat="59.163305" lon="17.876378">
        <ele>83.1</ele>
        <time>2015-01-21T20:54:05Z</time>
      </trkpt>
      <trkpt lat="59.163331" lon="17.876378">
        <ele>83</ele>
        <time>2015-01-21T20:54:06Z</time>
      </trkpt>
      <trkpt lat="59.163361" lon="17.876379">
        <ele>82.9</ele>
        <time>2015-01-21T20:54:09Z</time>
      </trkpt>
      <trkpt lat="59.163398" lon="17.876165">
        <ele>82.9</ele>
        <time>2015-01-21T20:54:14Z</time>
      </trkpt>
      <trkpt lat="59.163361" lon="17.875929">
        <ele>83.1</ele>
        <time>2015-01-21T20:54:17Z</time>
      </trkpt>
      <trkpt lat="59.163319" lon="17.875642">
        <ele>83.4</ele>
        <time>2015-01-21T20:54:20Z</time>
      </trkpt>
      <trkpt lat="59.16326" lon="17.875346">
        <ele>83.7</ele>
        <time>2015-01-21T20:54:23Z</time>
      </trkpt>
      <trkpt lat="59.163225" lon="17.87507">
        <ele>83.5</ele>
        <time>2015-01-21T20:54:26Z</time>
      </trkpt>
      <trkpt lat="59.163227" lon="17.874836">
        <ele>83.2</ele>
        <time>2015-01-21T20:54:29Z</time>
      </trkpt>
      <trkpt lat="59.163235" lon="17.874349">
        <ele>82.9</ele>
        <time>2015-01-21T20:54:34Z</time>
      </trkpt>
      <trkpt lat="59.16324" lon="17.874123">
        <ele>82.8</ele>
        <time>2015-01-21T20:54:36Z</time>
      </trkpt>
      <trkpt lat="59.163205" lon="17.873861">
        <ele>83</ele>
        <time>2015-01-21T20:54:39Z</time>
      </trkpt>
      <trkpt lat="59.163135" lon="17.873597">
        <ele>83.3</ele>
        <time>2015-01-21T20:54:43Z</time>
      </trkpt>
      <trkpt lat="59.163108" lon="17.873279">
        <ele>83.6</ele>
        <time>2015-01-21T20:54:47Z</time>
      </trkpt>
      <trkpt lat="59.163144" lon="17.872851">
        <ele>83.7</ele>
        <time>2015-01-21T20:54:52Z</time>
      </trkpt>
      <trkpt lat="59.163149" lon="17.872541">
        <ele>83.8</ele>
        <time>2015-01-21T20:54:56Z</time>
      </trkpt>
      <trkpt lat="59.163163" lon="17.872204">
        <ele>84</ele>
        <time>2015-01-21T20:55:00Z</time>
      </trkpt>
      <trkpt lat="59.163177" lon="17.87201">
        <ele>84.1</ele>
        <time>2015-01-21T20:55:02Z</time>
      </trkpt>
      <trkpt lat="59.16323" lon="17.871856">
        <ele>84.3</ele>
        <time>2015-01-21T20:55:04Z</time>
      </trkpt>
      <trkpt lat="59.163284" lon="17.871733">
        <ele>84.4</ele>
        <time>2015-01-21T20:55:06Z</time>
      </trkpt>
      <trkpt lat="59.163388" lon="17.871439">
        <ele>84.8</ele>
        <time>2015-01-21T20:55:10Z</time>
      </trkpt>
      <trkpt lat="59.163421" lon="17.871295">
        <ele>84.9</ele>
        <time>2015-01-21T20:55:12Z</time>
      </trkpt>
      <trkpt lat="59.163429" lon="17.870977">
        <ele>85.3</ele>
        <time>2015-01-21T20:55:18Z</time>
      </trkpt>
      <trkpt lat="59.163571" lon="17.870733">
        <ele>85.6</ele>
        <time>2015-01-21T20:55:24Z</time>
      </trkpt>
      <trkpt lat="59.163682" lon="17.87035">
        <ele>85.9</ele>
        <time>2015-01-21T20:55:30Z</time>
      </trkpt>
      <trkpt lat="59.163615" lon="17.869963">
        <ele>85.5</ele>
        <time>2015-01-21T20:55:35Z</time>
      </trkpt>
      <trkpt lat="59.163588" lon="17.869692">
        <ele>85.1</ele>
        <time>2015-01-21T20:55:38Z</time>
      </trkpt>
      <trkpt lat="59.163608" lon="17.869245">
        <ele>85</ele>
        <time>2015-01-21T20:55:43Z</time>
      </trkpt>
      <trkpt lat="59.163638" lon="17.868882">
        <ele>85</ele>
        <time>2015-01-21T20:55:47Z</time>
      </trkpt>
      <trkpt lat="59.163692" lon="17.868537">
        <ele>84.7</ele>
        <time>2015-01-21T20:55:51Z</time>
      </trkpt>
      <trkpt lat="59.163752" lon="17.868373">
        <ele>84.6</ele>
        <time>2015-01-21T20:55:53Z</time>
      </trkpt>
      <trkpt lat="59.163769" lon="17.868107">
        <ele>84.3</ele>
        <time>2015-01-21T20:55:56Z</time>
      </trkpt>
      <trkpt lat="59.163713" lon="17.867772">
        <ele>83.8</ele>
        <time>2015-01-21T20:56:00Z</time>
      </trkpt>
      <trkpt lat="59.163666" lon="17.86742">
        <ele>83.4</ele>
        <time>2015-01-21T20:56:04Z</time>
      </trkpt>
      <trkpt lat="59.163624" lon="17.86722">
        <ele>83.2</ele>
        <time>2015-01-21T20:56:06Z</time>
      </trkpt>
      <trkpt lat="59.163552" lon="17.867026">
        <ele>82.9</ele>
        <time>2015-01-21T20:56:08Z</time>
      </trkpt>
      <trkpt lat="59.163443" lon="17.866588">
        <ele>82.2</ele>
        <time>2015-01-21T20:56:14Z</time>
      </trkpt>
      <trkpt lat="59.163434" lon="17.86652">
        <ele>82.1</ele>
        <time>2015-01-21T20:56:15Z</time>
      </trkpt>
      <trkpt lat="59.163485" lon="17.866416">
        <ele>81.9</ele>
        <time>2015-01-21T20:56:20Z</time>
      </trkpt>
      <trkpt lat="59.163568" lon="17.866605">
        <ele>82.3</ele>
        <time>2015-01-21T20:56:25Z</time>
      </trkpt>
      <trkpt lat="59.163698" lon="17.866761">
        <ele>82.6</ele>
        <time>2015-01-21T20:56:31Z</time>
      </trkpt>
      <trkpt lat="59.16368" lon="17.86695">
        <ele>82.8</ele>
        <time>2015-01-21T20:56:36Z</time>
      </trkpt>
      <trkpt lat="59.163628" lon="17.867533">
        <ele>83.5</ele>
        <time>2015-01-21T20:56:41Z</time>
      </trkpt>
      <trkpt lat="59.163649" lon="17.867639">
        <ele>83.7</ele>
        <time>2015-01-21T20:56:42Z</time>
      </trkpt>
      <trkpt lat="59.163692" lon="17.868077">
        <ele>84.2</ele>
        <time>2015-01-21T20:56:47Z</time>
      </trkpt>
      <trkpt lat="59.163702" lon="17.868329">
        <ele>84.5</ele>
        <time>2015-01-21T20:56:50Z</time>
      </trkpt>
      <trkpt lat="59.163706" lon="17.868662">
        <ele>84.9</ele>
        <time>2015-01-21T20:56:55Z</time>
      </trkpt>
      <trkpt lat="59.163762" lon="17.868941">
        <ele>85</ele>
        <time>2015-01-21T20:57:00Z</time>
      </trkpt>
      <trkpt lat="59.163856" lon="17.869119">
        <ele>85.3</ele>
        <time>2015-01-21T20:57:04Z</time>
      </trkpt>
      <trkpt lat="59.163993" lon="17.869319">
        <ele>85.6</ele>
        <time>2015-01-21T20:57:08Z</time>
      </trkpt>
      <trkpt lat="59.164068" lon="17.869532">
        <ele>85.8</ele>
        <time>2015-01-21T20:57:12Z</time>
      </trkpt>
      <trkpt lat="59.164165" lon="17.869742">
        <ele>86</ele>
        <time>2015-01-21T20:57:16Z</time>
      </trkpt>
      <trkpt lat="59.164343" lon="17.869988">
        <ele>86.2</ele>
        <time>2015-01-21T20:57:21Z</time>
      </trkpt>
      <trkpt lat="59.164471" lon="17.870196">
        <ele>86.2</ele>
        <time>2015-01-21T20:57:26Z</time>
      </trkpt>
      <trkpt lat="59.16455" lon="17.870486">
        <ele>86</ele>
        <time>2015-01-21T20:57:31Z</time>
      </trkpt>
      <trkpt lat="59.164625" lon="17.870742">
        <ele>86.2</ele>
        <time>2015-01-21T20:57:35Z</time>
      </trkpt>
      <trkpt lat="59.164702" lon="17.871152">
        <ele>86.6</ele>
        <time>2015-01-21T20:57:40Z</time>
      </trkpt>
      <trkpt lat="59.164686" lon="17.871296">
        <ele>86.4</ele>
        <time>2015-01-21T20:57:42Z</time>
      </trkpt>
      <trkpt lat="59.164619" lon="17.871756">
        <ele>85.6</ele>
        <time>2015-01-21T20:57:47Z</time>
      </trkpt>
      <trkpt lat="59.164622" lon="17.871847">
        <ele>85.5</ele>
        <time>2015-01-21T20:57:48Z</time>
      </trkpt>
      <trkpt lat="59.164595" lon="17.872317">
        <ele>85.1</ele>
        <time>2015-01-21T20:57:53Z</time>
      </trkpt>
      <trkpt lat="59.164595" lon="17.872487">
        <ele>85.1</ele>
        <time>2015-01-21T20:57:55Z</time>
      </trkpt>
      <trkpt lat="59.164572" lon="17.872672">
        <ele>85</ele>
        <time>2015-01-21T20:57:57Z</time>
      </trkpt>
      <trkpt lat="59.164405" lon="17.87332">
        <ele>84.4</ele>
        <time>2015-01-21T20:58:04Z</time>
      </trkpt>
      <trkpt lat="59.164406" lon="17.87341">
        <ele>84.3</ele>
        <time>2015-01-21T20:58:05Z</time>
      </trkpt>
      <trkpt lat="59.164386" lon="17.873925">
        <ele>84.1</ele>
        <time>2015-01-21T20:58:11Z</time>
      </trkpt>
      <trkpt lat="59.164334" lon="17.874338">
        <ele>83.8</ele>
        <time>2015-01-21T20:58:16Z</time>
      </trkpt>
      <trkpt lat="59.164304" lon="17.87467">
        <ele>83.7</ele>
        <time>2015-01-21T20:58:20Z</time>
      </trkpt>
      <trkpt lat="59.164293" lon="17.874958">
        <ele>83.8</ele>
        <time>2015-01-21T20:58:24Z</time>
      </trkpt>
      <trkpt lat="59.163966" lon="17.875559">
        <ele>82.8</ele>
        <time>2015-01-21T20:58:29Z</time>
      </trkpt>
      <trkpt lat="59.163762" lon="17.875856">
        <ele>82</ele>
        <time>2015-01-21T20:58:34Z</time>
      </trkpt>
      <trkpt lat="59.16334" lon="17.876236">
        <ele>83</ele>
        <time>2015-01-21T20:58:40Z</time>
      </trkpt>
      <trkpt lat="59.163341" lon="17.876167">
        <ele>83</ele>
        <time>2015-01-21T20:58:45Z</time>
      </trkpt>
      <trkpt lat="59.163414" lon="17.876059">
        <ele>82.9</ele>
        <time>2015-01-21T20:58:49Z</time>
      </trkpt>
      <trkpt lat="59.163431" lon="17.875923">
        <ele>82.9</ele>
        <time>2015-01-21T20:58:54Z</time>
      </trkpt>
      <trkpt lat="59.163439" lon="17.875802">
        <ele>82.9</ele>
        <time>2015-01-21T20:58:57Z</time>
      </trkpt>
      <trkpt lat="59.163385" lon="17.875554">
        <ele>83.2</ele>
        <time>2015-01-21T20:59:02Z</time>
      </trkpt>
      <trkpt lat="59.163331" lon="17.875249">
        <ele>83.3</ele>
        <time>2015-01-21T20:59:06Z</time>
      </trkpt>
      <trkpt lat="59.163251" lon="17.87476">
        <ele>83</ele>
        <time>2015-01-21T20:59:12Z</time>
      </trkpt>
      <trkpt lat="59.163236" lon="17.874651">
        <ele>82.9</ele>
        <time>2015-01-21T20:59:13Z</time>
      </trkpt>
      <trkpt lat="59.163234" lon="17.874455">
        <ele>82.9</ele>
        <time>2015-01-21T20:59:15Z</time>
      </trkpt>
      <trkpt lat="59.163245" lon="17.874028">
        <ele>82.8</ele>
        <time>2015-01-21T20:59:20Z</time>
      </trkpt>
      <trkpt lat="59.163135" lon="17.873541">
        <ele>83.3</ele>
        <time>2015-01-21T20:59:27Z</time>
      </trkpt>
      <trkpt lat="59.163113" lon="17.873139">
        <ele>83.6</ele>
        <time>2015-01-21T20:59:33Z</time>
      </trkpt>
      <trkpt lat="59.163131" lon="17.873078">
        <ele>83.6</ele>
        <time>2015-01-21T20:59:34Z</time>
      </trkpt>
      <trkpt lat="59.163184" lon="17.872732">
        <ele>83.8</ele>
        <time>2015-01-21T20:59:39Z</time>
      </trkpt>
      <trkpt lat="59.163174" lon="17.872457">
        <ele>83.9</ele>
        <time>2015-01-21T20:59:43Z</time>
      </trkpt>
      <trkpt lat="59.163202" lon="17.872106">
        <ele>84</ele>
        <time>2015-01-21T20:59:47Z</time>
      </trkpt>
      <trkpt lat="59.163324" lon="17.87175">
        <ele>84.4</ele>
        <time>2015-01-21T20:59:51Z</time>
      </trkpt>
      <trkpt lat="59.163372" lon="17.871339">
        <ele>84.9</ele>
        <time>2015-01-21T20:59:56Z</time>
      </trkpt>
      <trkpt lat="59.163382" lon="17.871103">
        <ele>85.2</ele>
        <time>2015-01-21T20:59:59Z</time>
      </trkpt>
      <trkpt lat="59.163484" lon="17.870883">
        <ele>85.4</ele>
        <time>2015-01-21T21:00:04Z</time>
      </trkpt>
      <trkpt lat="59.163541" lon="17.870617">
        <ele>85.8</ele>
        <time>2015-01-21T21:00:09Z</time>
      </trkpt>
      <trkpt lat="59.163645" lon="17.870209">
        <ele>85.8</ele>
        <time>2015-01-21T21:00:14Z</time>
      </trkpt>
      <trkpt lat="59.163602" lon="17.869779">
        <ele>85.2</ele>
        <time>2015-01-21T21:00:19Z</time>
      </trkpt>
      <trkpt lat="59.163598" lon="17.869705">
        <ele>85.1</ele>
        <time>2015-01-21T21:00:20Z</time>
      </trkpt>
      <trkpt lat="59.163617" lon="17.869246">
        <ele>85</ele>
        <time>2015-01-21T21:00:25Z</time>
      </trkpt>
      <trkpt lat="59.163625" lon="17.868848">
        <ele>85</ele>
        <time>2015-01-21T21:00:30Z</time>
      </trkpt>
      <trkpt lat="59.16365" lon="17.8686">
        <ele>84.8</ele>
        <time>2015-01-21T21:00:33Z</time>
      </trkpt>
      <trkpt lat="59.163681" lon="17.868152">
        <ele>84.3</ele>
        <time>2015-01-21T21:00:38Z</time>
      </trkpt>
      <trkpt lat="59.163692" lon="17.867962">
        <ele>84.1</ele>
        <time>2015-01-21T21:00:40Z</time>
      </trkpt>
      <trkpt lat="59.163698" lon="17.867804">
        <ele>83.9</ele>
        <time>2015-01-21T21:00:42Z</time>
      </trkpt>
      <trkpt lat="59.163678" lon="17.867391">
        <ele>83.4</ele>
        <time>2015-01-21T21:00:47Z</time>
      </trkpt>
      <trkpt lat="59.163658" lon="17.867312">
        <ele>83.3</ele>
        <time>2015-01-21T21:00:48Z</time>
      </trkpt>
      <trkpt lat="59.163525" lon="17.86692">
        <ele>82.8</ele>
        <time>2015-01-21T21:00:53Z</time>
      </trkpt>
      <trkpt lat="59.163438" lon="17.86649">
        <ele>82</ele>
        <time>2015-01-21T21:00:57Z</time>
      </trkpt>
      <trkpt lat="59.163468" lon="17.866407">
        <ele>81.9</ele>
        <time>2015-01-21T21:01:01Z</time>
      </trkpt>
      <trkpt lat="59.163482" lon="17.866451">
        <ele>82</ele>
        <time>2015-01-21T21:01:02Z</time>
      </trkpt>
      <trkpt lat="59.163542" lon="17.866545">
        <ele>82.2</ele>
        <time>2015-01-21T21:01:05Z</time>
      </trkpt>
      <trkpt lat="59.163629" lon="17.866689">
        <ele>82.5</ele>
        <time>2015-01-21T21:01:10Z</time>
      </trkpt>
      <trkpt lat="59.163699" lon="17.866813">
        <ele>82.7</ele>
        <time>2015-01-21T21:01:15Z</time>
      </trkpt>
      <trkpt lat="59.163697" lon="17.866851">
        <ele>82.7</ele>
        <time>2015-01-21T21:01:16Z</time>
      </trkpt>
      <trkpt lat="59.163686" lon="17.867289">
        <ele>83.2</ele>
        <time>2015-01-21T21:01:21Z</time>
      </trkpt>
      <trkpt lat="59.163662" lon="17.867745">
        <ele>83.8</ele>
        <time>2015-01-21T21:01:25Z</time>
      </trkpt>
      <trkpt lat="59.163648" lon="17.867994">
        <ele>84.1</ele>
        <time>2015-01-21T21:01:27Z</time>
      </trkpt>
      <trkpt lat="59.16362" lon="17.868434">
        <ele>84.6</ele>
        <time>2015-01-21T21:01:31Z</time>
      </trkpt>
      <trkpt lat="59.163559" lon="17.868841">
        <ele>85</ele>
        <time>2015-01-21T21:01:35Z</time>
      </trkpt>
      <trkpt lat="59.163522" lon="17.869279">
        <ele>85</ele>
        <time>2015-01-21T21:01:39Z</time>
      </trkpt>
      <trkpt lat="59.163477" lon="17.869649">
        <ele>85.1</ele>
        <time>2015-01-21T21:01:42Z</time>
      </trkpt>
      <trkpt lat="59.163464" lon="17.870308">
        <ele>85.9</ele>
        <time>2015-01-21T21:01:48Z</time>
      </trkpt>
      <trkpt lat="59.163484" lon="17.870535">
        <ele>85.9</ele>
        <time>2015-01-21T21:01:51Z</time>
      </trkpt>
      <trkpt lat="59.163459" lon="17.870803">
        <ele>85.5</ele>
        <time>2015-01-21T21:01:54Z</time>
      </trkpt>
      <trkpt lat="59.163495" lon="17.871086">
        <ele>85.2</ele>
        <time>2015-01-21T21:01:57Z</time>
      </trkpt>
      <trkpt lat="59.163631" lon="17.871338">
        <ele>84.9</ele>
        <time>2015-01-21T21:02:01Z</time>
      </trkpt>
      <trkpt lat="59.163663" lon="17.871484">
        <ele>84.7</ele>
        <time>2015-01-21T21:02:03Z</time>
      </trkpt>
      <trkpt lat="59.163744" lon="17.871707">
        <ele>84.5</ele>
        <time>2015-01-21T21:02:07Z</time>
      </trkpt>
      <trkpt lat="59.163785" lon="17.8719">
        <ele>84.3</ele>
        <time>2015-01-21T21:02:10Z</time>
      </trkpt>
      <trkpt lat="59.163864" lon="17.872323">
        <ele>83.9</ele>
        <time>2015-01-21T21:02:15Z</time>
      </trkpt>
      <trkpt lat="59.163878" lon="17.872538">
        <ele>83.7</ele>
        <time>2015-01-21T21:02:17Z</time>
      </trkpt>
      <trkpt lat="59.163835" lon="17.873015">
        <ele>83</ele>
        <time>2015-01-21T21:02:21Z</time>
      </trkpt>
      <trkpt lat="59.163715" lon="17.873686">
        <ele>81.3</ele>
        <time>2015-01-21T21:02:26Z</time>
      </trkpt>
      <trkpt lat="59.163719" lon="17.873804">
        <ele>81.1</ele>
        <time>2015-01-21T21:02:27Z</time>
      </trkpt>
      <trkpt lat="59.163716" lon="17.874173">
        <ele>81.1</ele>
        <time>2015-01-21T21:02:31Z</time>
      </trkpt>
      <trkpt lat="59.163663" lon="17.874651">
        <ele>81.4</ele>
        <time>2015-01-21T21:02:36Z</time>
      </trkpt>
      <trkpt lat="59.163575" lon="17.875014">
        <ele>82.1</ele>
        <time>2015-01-21T21:02:40Z</time>
      </trkpt>
      <trkpt lat="59.163554" lon="17.875397">
        <ele>82.7</ele>
        <time>2015-01-21T21:02:44Z</time>
      </trkpt>
      <trkpt lat="59.163516" lon="17.875706">
        <ele>82.7</ele>
        <time>2015-01-21T21:02:47Z</time>
      </trkpt>
      <trkpt lat="59.163495" lon="17.875992">
        <ele>82.7</ele>
        <time>2015-01-21T21:02:51Z</time>
      </trkpt>
      <trkpt lat="59.163458" lon="17.876393">
        <ele>82.8</ele>
        <time>2015-01-21T21:02:56Z</time>
      </trkpt>
      <trkpt lat="59.163448" lon="17.876643">
        <ele>82.9</ele>
        <time>2015-01-21T21:02:59Z</time>
      </trkpt>
      <trkpt lat="59.163363" lon="17.876852">
        <ele>83</ele>
        <time>2015-01-21T21:03:04Z</time>
      </trkpt>
      <trkpt lat="59.163322" lon="17.876793">
        <ele>83</ele>
        <time>2015-01-21T21:03:09Z</time>
      </trkpt>
      <trkpt lat="59.163322" lon="17.876768">
        <ele>83</ele>
        <time>2015-01-21T21:03:10Z</time>
      </trkpt>
      <trkpt lat="59.163299" lon="17.876726">
        <ele>83</ele>
        <time>2015-01-21T21:03:13Z</time>
      </trkpt>
      <trkpt lat="59.163245" lon="17.876617">
        <ele>83.1</ele>
        <time>2015-01-21T21:03:19Z</time>
      </trkpt>
      <trkpt lat="59.163243" lon="17.876593">
        <ele>83.1</ele>
        <time>2015-01-21T21:03:20Z</time>
      </trkpt>
      <trkpt lat="59.163251" lon="17.87657">
        <ele>83.1</ele>
        <time>2015-01-21T21:03:21Z</time>
      </trkpt>
      <trkpt lat="59.163251" lon="17.87657">
        <ele>83.1</ele>
        <time>2015-01-21T21:03:22Z</time>
      </trkpt>
      <trkpt lat="59.163251" lon="17.87657">
        <ele>83.1</ele>
        <time>2015-01-21T21:05:07Z</time>
      </trkpt>
      <trkpt lat="59.163258" lon="17.876366">
        <ele>83.2</ele>
        <time>2015-01-21T21:05:08Z</time>
      </trkpt>
      <trkpt lat="59.163255" lon="17.876372">
        <ele>83.2</ele>
        <time>2015-01-21T21:05:09Z</time>
      </trkpt>
      <trkpt lat="59.163254" lon="17.876382">
        <ele>83.2</ele>
        <time>2015-01-21T21:05:10Z</time>
      </trkpt>
      <trkpt lat="59.163249" lon="17.876373">
        <ele>83.2</ele>
        <time>2015-01-21T21:05:14Z</time>
      </trkpt>
      <trkpt lat="59.163229" lon="17.876269">
        <ele>83.2</ele>
        <time>2015-01-21T21:05:36Z</time>
      </trkpt>
      <trkpt lat="59.163197" lon="17.876261">
        <ele>83.3</ele>
        <time>2015-01-21T21:05:44Z</time>
      </trkpt>
      <trkpt lat="59.163218" lon="17.876336">
        <ele>83.2</ele>
        <time>2015-01-21T21:05:52Z</time>
      </trkpt>
      <trkpt lat="59.163258" lon="17.876382">
        <ele>83.2</ele>
        <time>2015-01-21T21:05:59Z</time>
      </trkpt>
      <trkpt lat="59.163321" lon="17.876011">
        <ele>83.2</ele>
        <time>2015-01-21T21:06:06Z</time>
      </trkpt>
      <trkpt lat="59.163307" lon="17.875601">
        <ele>83.5</ele>
        <time>2015-01-21T21:06:11Z</time>
      </trkpt>
      <trkpt lat="59.163293" lon="17.875449">
        <ele>83.6</ele>
        <time>2015-01-21T21:06:13Z</time>
      </trkpt>
      <trkpt lat="59.163272" lon="17.875263">
        <ele>83.5</ele>
        <time>2015-01-21T21:06:15Z</time>
      </trkpt>
      <trkpt lat="59.16323" lon="17.874919">
        <ele>83.3</ele>
        <time>2015-01-21T21:06:19Z</time>
      </trkpt>
      <trkpt lat="59.163244" lon="17.874501">
        <ele>82.8</ele>
        <time>2015-01-21T21:06:24Z</time>
      </trkpt>
      <trkpt lat="59.163242" lon="17.874084">
        <ele>82.8</ele>
        <time>2015-01-21T21:06:28Z</time>
      </trkpt>
      <trkpt lat="59.163212" lon="17.873834">
        <ele>82.9</ele>
        <time>2015-01-21T21:06:31Z</time>
      </trkpt>
      <trkpt lat="59.163181" lon="17.873678">
        <ele>83.1</ele>
        <time>2015-01-21T21:06:33Z</time>
      </trkpt>
      <trkpt lat="59.163123" lon="17.873242">
        <ele>83.6</ele>
        <time>2015-01-21T21:06:39Z</time>
      </trkpt>
      <trkpt lat="59.163134" lon="17.872987">
        <ele>83.7</ele>
        <time>2015-01-21T21:06:43Z</time>
      </trkpt>
      <trkpt lat="59.163182" lon="17.872539">
        <ele>83.8</ele>
        <time>2015-01-21T21:06:49Z</time>
      </trkpt>
      <trkpt lat="59.16322" lon="17.872117">
        <ele>84</ele>
        <time>2015-01-21T21:06:54Z</time>
      </trkpt>
      <trkpt lat="59.163284" lon="17.871868">
        <ele>84.3</ele>
        <time>2015-01-21T21:06:57Z</time>
      </trkpt>
      <trkpt lat="59.16333" lon="17.87146">
        <ele>84.7</ele>
        <time>2015-01-21T21:07:02Z</time>
      </trkpt>
      <trkpt lat="59.163421" lon="17.870954">
        <ele>85.4</ele>
        <time>2015-01-21T21:07:08Z</time>
      </trkpt>
      <trkpt lat="59.16351" lon="17.870785">
        <ele>85.6</ele>
        <time>2015-01-21T21:07:11Z</time>
      </trkpt>
      <trkpt lat="59.163588" lon="17.870706">
        <ele>85.7</ele>
        <time>2015-01-21T21:07:14Z</time>
      </trkpt>
      <trkpt lat="59.163679" lon="17.870503">
        <ele>85.9</ele>
        <time>2015-01-21T21:07:17Z</time>
      </trkpt>
      <trkpt lat="59.16368" lon="17.870198">
        <ele>85.7</ele>
        <time>2015-01-21T21:07:21Z</time>
      </trkpt>
      <trkpt lat="59.163635" lon="17.869984">
        <ele>85.5</ele>
        <time>2015-01-21T21:07:23Z</time>
      </trkpt>
      <trkpt lat="59.163614" lon="17.869528">
        <ele>85</ele>
        <time>2015-01-21T21:07:28Z</time>
      </trkpt>
      <trkpt lat="59.16362" lon="17.869217">
        <ele>85</ele>
        <time>2015-01-21T21:07:31Z</time>
      </trkpt>
      <trkpt lat="59.163656" lon="17.868924">
        <ele>85</ele>
        <time>2015-01-21T21:07:35Z</time>
      </trkpt>
      <trkpt lat="59.163669" lon="17.868795">
        <ele>85</ele>
        <time>2015-01-21T21:07:37Z</time>
      </trkpt>
      <trkpt lat="59.163715" lon="17.868521">
        <ele>84.7</ele>
        <time>2015-01-21T21:07:41Z</time>
      </trkpt>
      <trkpt lat="59.163731" lon="17.868041">
        <ele>84.1</ele>
        <time>2015-01-21T21:07:47Z</time>
      </trkpt>
      <trkpt lat="59.16373" lon="17.867946">
        <ele>84</ele>
        <time>2015-01-21T21:07:48Z</time>
      </trkpt>
      <trkpt lat="59.163734" lon="17.867759">
        <ele>83.8</ele>
        <time>2015-01-21T21:07:50Z</time>
      </trkpt>
      <trkpt lat="59.163719" lon="17.867527">
        <ele>83.5</ele>
        <time>2015-01-21T21:07:53Z</time>
      </trkpt>
      <trkpt lat="59.163603" lon="17.867065">
        <ele>83</ele>
        <time>2015-01-21T21:07:59Z</time>
      </trkpt>
      <trkpt lat="59.163575" lon="17.867001">
        <ele>82.9</ele>
        <time>2015-01-21T21:08:00Z</time>
      </trkpt>
      <trkpt lat="59.163475" lon="17.866621">
        <ele>82.3</ele>
        <time>2015-01-21T21:08:05Z</time>
      </trkpt>
      <trkpt lat="59.163473" lon="17.86644">
        <ele>82</ele>
        <time>2015-01-21T21:08:08Z</time>
      </trkpt>
      <trkpt lat="59.16353" lon="17.866504">
        <ele>82.1</ele>
        <time>2015-01-21T21:08:12Z</time>
      </trkpt>
      <trkpt lat="59.163573" lon="17.866629">
        <ele>82.3</ele>
        <time>2015-01-21T21:08:16Z</time>
      </trkpt>
      <trkpt lat="59.163606" lon="17.866672">
        <ele>82.4</ele>
        <time>2015-01-21T21:08:18Z</time>
      </trkpt>
      <trkpt lat="59.1637" lon="17.866781">
        <ele>82.6</ele>
        <time>2015-01-21T21:08:24Z</time>
      </trkpt>
      <trkpt lat="59.163706" lon="17.866815">
        <ele>82.7</ele>
        <time>2015-01-21T21:08:26Z</time>
      </trkpt>
      <trkpt lat="59.163681" lon="17.866877">
        <ele>82.7</ele>
        <time>2015-01-21T21:08:29Z</time>
      </trkpt>
      <trkpt lat="59.163662" lon="17.867177">
        <ele>83.1</ele>
        <time>2015-01-21T21:08:34Z</time>
      </trkpt>
      <trkpt lat="59.163617" lon="17.86772">
        <ele>83.8</ele>
        <time>2015-01-21T21:08:37Z</time>
      </trkpt>
      <trkpt lat="59.1636" lon="17.868194">
        <ele>84.3</ele>
        <time>2015-01-21T21:08:41Z</time>
      </trkpt>
      <trkpt lat="59.163616" lon="17.868521">
        <ele>84.7</ele>
        <time>2015-01-21T21:08:44Z</time>
      </trkpt>
      <trkpt lat="59.163608" lon="17.868813">
        <ele>85</ele>
        <time>2015-01-21T21:08:48Z</time>
      </trkpt>
      <trkpt lat="59.16353" lon="17.869346">
        <ele>85</ele>
        <time>2015-01-21T21:08:53Z</time>
      </trkpt>
      <trkpt lat="59.163518" lon="17.869588">
        <ele>85</ele>
        <time>2015-01-21T21:08:55Z</time>
      </trkpt>
      <trkpt lat="59.163515" lon="17.86981">
        <ele>85.3</ele>
        <time>2015-01-21T21:08:57Z</time>
      </trkpt>
      <trkpt lat="59.163506" lon="17.870195">
        <ele>85.7</ele>
        <time>2015-01-21T21:09:01Z</time>
      </trkpt>
      <trkpt lat="59.163541" lon="17.870374">
        <ele>85.9</ele>
        <time>2015-01-21T21:09:04Z</time>
      </trkpt>
      <trkpt lat="59.163538" lon="17.870593">
        <ele>85.8</ele>
        <time>2015-01-21T21:09:07Z</time>
      </trkpt>
      <trkpt lat="59.163614" lon="17.870959">
        <ele>85.3</ele>
        <time>2015-01-21T21:09:12Z</time>
      </trkpt>
      <trkpt lat="59.163723" lon="17.871153">
        <ele>85.1</ele>
        <time>2015-01-21T21:09:15Z</time>
      </trkpt>
      <trkpt lat="59.163841" lon="17.87151">
        <ele>84.8</ele>
        <time>2015-01-21T21:09:20Z</time>
      </trkpt>
      <trkpt lat="59.163854" lon="17.871577">
        <ele>84.7</ele>
        <time>2015-01-21T21:09:21Z</time>
      </trkpt>
      <trkpt lat="59.163903" lon="17.871886">
        <ele>84.4</ele>
        <time>2015-01-21T21:09:25Z</time>
      </trkpt>
      <trkpt lat="59.164001" lon="17.872347">
        <ele>84.1</ele>
        <time>2015-01-21T21:09:31Z</time>
      </trkpt>
      <trkpt lat="59.164017" lon="17.872423">
        <ele>84</ele>
        <time>2015-01-21T21:09:32Z</time>
      </trkpt>
      <trkpt lat="59.16407" lon="17.872788">
        <ele>83.9</ele>
        <time>2015-01-21T21:09:38Z</time>
      </trkpt>
      <trkpt lat="59.164133" lon="17.873098">
        <ele>83.7</ele>
        <time>2015-01-21T21:09:42Z</time>
      </trkpt>
      <trkpt lat="59.164254" lon="17.873403">
        <ele>83.7</ele>
        <time>2015-01-21T21:09:48Z</time>
      </trkpt>
      <trkpt lat="59.164289" lon="17.873646">
        <ele>83.7</ele>
        <time>2015-01-21T21:09:53Z</time>
      </trkpt>
      <trkpt lat="59.164342" lon="17.873881">
        <ele>83.8</ele>
        <time>2015-01-21T21:09:58Z</time>
      </trkpt>
      <trkpt lat="59.164424" lon="17.874138">
        <ele>84.2</ele>
        <time>2015-01-21T21:10:03Z</time>
      </trkpt>
      <trkpt lat="59.16447" lon="17.874384">
        <ele>84.5</ele>
        <time>2015-01-21T21:10:08Z</time>
      </trkpt>
      <trkpt lat="59.16455" lon="17.874581">
        <ele>84.8</ele>
        <time>2015-01-21T21:10:13Z</time>
      </trkpt>
      <trkpt lat="59.164564" lon="17.874659">
        <ele>84.9</ele>
        <time>2015-01-21T21:10:15Z</time>
      </trkpt>
      <trkpt lat="59.164356" lon="17.87502">
        <ele>84.1</ele>
        <time>2015-01-21T21:10:20Z</time>
      </trkpt>
      <trkpt lat="59.164301" lon="17.875076">
        <ele>83.8</ele>
        <time>2015-01-21T21:10:21Z</time>
      </trkpt>
      <trkpt lat="59.164197" lon="17.875185">
        <ele>83.5</ele>
        <time>2015-01-21T21:10:23Z</time>
      </trkpt>
      <trkpt lat="59.163824" lon="17.875581">
        <ele>82.3</ele>
        <time>2015-01-21T21:10:28Z</time>
      </trkpt>
      <trkpt lat="59.163573" lon="17.875736">
        <ele>82.6</ele>
        <time>2015-01-21T21:10:35Z</time>
      </trkpt>
      <trkpt lat="59.16345" lon="17.875376">
        <ele>83</ele>
        <time>2015-01-21T21:10:41Z</time>
      </trkpt>
      <trkpt lat="59.163347" lon="17.87502">
        <ele>83</ele>
        <time>2015-01-21T21:10:45Z</time>
      </trkpt>
      <trkpt lat="59.163293" lon="17.874684">
        <ele>82.8</ele>
        <time>2015-01-21T21:10:49Z</time>
      </trkpt>
      <trkpt lat="59.163305" lon="17.87411">
        <ele>82.6</ele>
        <time>2015-01-21T21:10:55Z</time>
      </trkpt>
      <trkpt lat="59.163217" lon="17.873647">
        <ele>83</ele>
        <time>2015-01-21T21:11:01Z</time>
      </trkpt>
      <trkpt lat="59.163128" lon="17.873224">
        <ele>83.6</ele>
        <time>2015-01-21T21:11:07Z</time>
      </trkpt>
      <trkpt lat="59.163138" lon="17.872907">
        <ele>83.7</ele>
        <time>2015-01-21T21:11:11Z</time>
      </trkpt>
      <trkpt lat="59.163175" lon="17.872503">
        <ele>83.8</ele>
        <time>2015-01-21T21:11:16Z</time>
      </trkpt>
      <trkpt lat="59.163195" lon="17.872147">
        <ele>84</ele>
        <time>2015-01-21T21:11:20Z</time>
      </trkpt>
      <trkpt lat="59.163299" lon="17.871708">
        <ele>84.5</ele>
        <time>2015-01-21T21:11:25Z</time>
      </trkpt>
      <trkpt lat="59.163363" lon="17.871453">
        <ele>84.8</ele>
        <time>2015-01-21T21:11:28Z</time>
      </trkpt>
      <trkpt lat="59.163405" lon="17.871129">
        <ele>85.1</ele>
        <time>2015-01-21T21:11:32Z</time>
      </trkpt>
      <trkpt lat="59.163443" lon="17.87092">
        <ele>85.4</ele>
        <time>2015-01-21T21:11:35Z</time>
      </trkpt>
      <trkpt lat="59.163575" lon="17.870762">
        <ele>85.6</ele>
        <time>2015-01-21T21:11:39Z</time>
      </trkpt>
      <trkpt lat="59.163629" lon="17.870664">
        <ele>85.7</ele>
        <time>2015-01-21T21:11:41Z</time>
      </trkpt>
      <trkpt lat="59.163678" lon="17.870361">
        <ele>85.9</ele>
        <time>2015-01-21T21:11:45Z</time>
      </trkpt>
      <trkpt lat="59.163642" lon="17.870082">
        <ele>85.6</ele>
        <time>2015-01-21T21:11:48Z</time>
      </trkpt>
      <trkpt lat="59.163615" lon="17.869786">
        <ele>85.2</ele>
        <time>2015-01-21T21:11:51Z</time>
      </trkpt>
      <trkpt lat="59.16361" lon="17.869506">
        <ele>85</ele>
        <time>2015-01-21T21:11:54Z</time>
      </trkpt>
      <trkpt lat="59.163638" lon="17.868986">
        <ele>85</ele>
        <time>2015-01-21T21:12:00Z</time>
      </trkpt>
      <trkpt lat="59.163701" lon="17.868476">
        <ele>84.7</ele>
        <time>2015-01-21T21:12:06Z</time>
      </trkpt>
      <trkpt lat="59.163735" lon="17.868069">
        <ele>84.2</ele>
        <time>2015-01-21T21:12:10Z</time>
      </trkpt>
      <trkpt lat="59.16373" lon="17.867759">
        <ele>83.8</ele>
        <time>2015-01-21T21:12:13Z</time>
      </trkpt>
      <trkpt lat="59.1637" lon="17.867454">
        <ele>83.4</ele>
        <time>2015-01-21T21:12:16Z</time>
      </trkpt>
      <trkpt lat="59.163644" lon="17.867193">
        <ele>83.1</ele>
        <time>2015-01-21T21:12:19Z</time>
      </trkpt>
      <trkpt lat="59.163529" lon="17.866808">
        <ele>82.6</ele>
        <time>2015-01-21T21:12:24Z</time>
      </trkpt>
      <trkpt lat="59.163472" lon="17.866509">
        <ele>82.1</ele>
        <time>2015-01-21T21:12:27Z</time>
      </trkpt>
      <trkpt lat="59.163506" lon="17.866369">
        <ele>81.9</ele>
        <time>2015-01-21T21:12:32Z</time>
      </trkpt>
      <trkpt lat="59.163536" lon="17.866479">
        <ele>82.1</ele>
        <time>2015-01-21T21:12:35Z</time>
      </trkpt>
      <trkpt lat="59.163667" lon="17.86663">
        <ele>82.4</ele>
        <time>2015-01-21T21:12:41Z</time>
      </trkpt>
      <trkpt lat="59.163686" lon="17.86665">
        <ele>82.4</ele>
        <time>2015-01-21T21:12:42Z</time>
      </trkpt>
      <trkpt lat="59.163713" lon="17.866721">
        <ele>82.5</ele>
        <time>2015-01-21T21:12:44Z</time>
      </trkpt>
      <trkpt lat="59.163684" lon="17.866905">
        <ele>82.8</ele>
        <time>2015-01-21T21:12:48Z</time>
      </trkpt>
      <trkpt lat="59.163594" lon="17.867274">
        <ele>83.2</ele>
        <time>2015-01-21T21:12:52Z</time>
      </trkpt>
      <trkpt lat="59.163596" lon="17.867583">
        <ele>83.6</ele>
        <time>2015-01-21T21:12:55Z</time>
      </trkpt>
      <trkpt lat="59.163595" lon="17.867853">
        <ele>83.9</ele>
        <time>2015-01-21T21:12:57Z</time>
      </trkpt>
      <trkpt lat="59.163627" lon="17.868513">
        <ele>84.7</ele>
        <time>2015-01-21T21:13:02Z</time>
      </trkpt>
      <trkpt lat="59.163607" lon="17.8688">
        <ele>85</ele>
        <time>2015-01-21T21:13:06Z</time>
      </trkpt>
      <trkpt lat="59.163612" lon="17.86891">
        <ele>85</ele>
        <time>2015-01-21T21:13:08Z</time>
      </trkpt>
      <trkpt lat="59.163657" lon="17.869268">
        <ele>85</ele>
        <time>2015-01-21T21:13:13Z</time>
      </trkpt>
      <trkpt lat="59.16374" lon="17.869627">
        <ele>85.1</ele>
        <time>2015-01-21T21:13:18Z</time>
      </trkpt>
      <trkpt lat="59.163805" lon="17.869846">
        <ele>85.4</ele>
        <time>2015-01-21T21:13:21Z</time>
      </trkpt>
      <trkpt lat="59.163835" lon="17.870175">
        <ele>85.8</ele>
        <time>2015-01-21T21:13:26Z</time>
      </trkpt>
      <trkpt lat="59.163868" lon="17.870367">
        <ele>86</ele>
        <time>2015-01-21T21:13:28Z</time>
      </trkpt>
      <trkpt lat="59.16391" lon="17.870746">
        <ele>85.7</ele>
        <time>2015-01-21T21:13:32Z</time>
      </trkpt>
      <trkpt lat="59.163943" lon="17.870913">
        <ele>85.5</ele>
        <time>2015-01-21T21:13:34Z</time>
      </trkpt>
      <trkpt lat="59.163989" lon="17.871258">
        <ele>85.3</ele>
        <time>2015-01-21T21:13:38Z</time>
      </trkpt>
      <trkpt lat="59.164041" lon="17.871605">
        <ele>84.9</ele>
        <time>2015-01-21T21:13:42Z</time>
      </trkpt>
      <trkpt lat="59.164135" lon="17.871741">
        <ele>84.9</ele>
        <time>2015-01-21T21:13:45Z</time>
      </trkpt>
      <trkpt lat="59.164236" lon="17.871903">
        <ele>84.8</ele>
        <time>2015-01-21T21:13:48Z</time>
      </trkpt>
      <trkpt lat="59.164282" lon="17.872011">
        <ele>84.7</ele>
        <time>2015-01-21T21:13:50Z</time>
      </trkpt>
      <trkpt lat="59.164337" lon="17.872341">
        <ele>84.6</ele>
        <time>2015-01-21T21:13:56Z</time>
      </trkpt>
      <trkpt lat="59.164432" lon="17.872569">
        <ele>84.7</ele>
        <time>2015-01-21T21:14:00Z</time>
      </trkpt>
      <trkpt lat="59.164485" lon="17.872939">
        <ele>84.8</ele>
        <time>2015-01-21T21:14:06Z</time>
      </trkpt>
      <trkpt lat="59.16443" lon="17.873414">
        <ele>84.4</ele>
        <time>2015-01-21T21:14:10Z</time>
      </trkpt>
      <trkpt lat="59.164443" lon="17.873666">
        <ele>84.4</ele>
        <time>2015-01-21T21:14:15Z</time>
      </trkpt>
      <trkpt lat="59.164484" lon="17.873952">
        <ele>84.5</ele>
        <time>2015-01-21T21:14:20Z</time>
      </trkpt>
      <trkpt lat="59.164479" lon="17.874147">
        <ele>84.5</ele>
        <time>2015-01-21T21:14:24Z</time>
      </trkpt>
      <trkpt lat="59.164368" lon="17.87478">
        <ele>84</ele>
        <time>2015-01-21T21:14:29Z</time>
      </trkpt>
      <trkpt lat="59.164359" lon="17.874823">
        <ele>84</ele>
        <time>2015-01-21T21:14:30Z</time>
      </trkpt>
      <trkpt lat="59.164352" lon="17.875033">
        <ele>84</ele>
        <time>2015-01-21T21:14:35Z</time>
      </trkpt>
      <trkpt lat="59.164327" lon="17.875038">
        <ele>83.9</ele>
        <time>2015-01-21T21:14:36Z</time>
      </trkpt>
      <trkpt lat="59.16401" lon="17.875408">
        <ele>82.9</ele>
        <time>2015-01-21T21:14:41Z</time>
      </trkpt>
      <trkpt lat="59.163622" lon="17.875902">
        <ele>82.4</ele>
        <time>2015-01-21T21:14:46Z</time>
      </trkpt>
      <trkpt lat="59.163564" lon="17.875931">
        <ele>82.5</ele>
        <time>2015-01-21T21:14:47Z</time>
      </trkpt>
      <trkpt lat="59.163395" lon="17.875974">
        <ele>83</ele>
        <time>2015-01-21T21:14:52Z</time>
      </trkpt>
      <trkpt lat="59.163334" lon="17.87556">
        <ele>83.4</ele>
        <time>2015-01-21T21:14:59Z</time>
      </trkpt>
      <trkpt lat="59.163258" lon="17.87508">
        <ele>83.4</ele>
        <time>2015-01-21T21:15:05Z</time>
      </trkpt>
      <trkpt lat="59.163274" lon="17.87468">
        <ele>82.8</ele>
        <time>2015-01-21T21:15:10Z</time>
      </trkpt>
      <trkpt lat="59.163287" lon="17.874393">
        <ele>82.7</ele>
        <time>2015-01-21T21:15:13Z</time>
      </trkpt>
      <trkpt lat="59.163271" lon="17.87391">
        <ele>82.7</ele>
        <time>2015-01-21T21:15:18Z</time>
      </trkpt>
      <trkpt lat="59.163164" lon="17.873494">
        <ele>83.3</ele>
        <time>2015-01-21T21:15:23Z</time>
      </trkpt>
      <trkpt lat="59.163148" lon="17.87336">
        <ele>83.4</ele>
        <time>2015-01-21T21:15:25Z</time>
      </trkpt>
      <trkpt lat="59.163163" lon="17.87301">
        <ele>83.6</ele>
        <time>2015-01-21T21:15:30Z</time>
      </trkpt>
      <trkpt lat="59.163182" lon="17.872692">
        <ele>83.8</ele>
        <time>2015-01-21T21:15:34Z</time>
      </trkpt>
      <trkpt lat="59.163183" lon="17.872438">
        <ele>83.9</ele>
        <time>2015-01-21T21:15:37Z</time>
      </trkpt>
      <trkpt lat="59.163232" lon="17.871969">
        <ele>84.1</ele>
        <time>2015-01-21T21:15:42Z</time>
      </trkpt>
      <trkpt lat="59.16326" lon="17.871881">
        <ele>84.2</ele>
        <time>2015-01-21T21:15:43Z</time>
      </trkpt>
      <trkpt lat="59.163369" lon="17.87145">
        <ele>84.8</ele>
        <time>2015-01-21T21:15:48Z</time>
      </trkpt>
      <trkpt lat="59.163429" lon="17.870978">
        <ele>85.3</ele>
        <time>2015-01-21T21:15:53Z</time>
      </trkpt>
      <trkpt lat="59.163555" lon="17.870756">
        <ele>85.6</ele>
        <time>2015-01-21T21:15:57Z</time>
      </trkpt>
      <trkpt lat="59.163656" lon="17.870717">
        <ele>85.6</ele>
        <time>2015-01-21T21:15:59Z</time>
      </trkpt>
      <trkpt lat="59.163756" lon="17.870376">
        <ele>86</ele>
        <time>2015-01-21T21:16:04Z</time>
      </trkpt>
      <trkpt lat="59.16373" lon="17.870193">
        <ele>85.7</ele>
        <time>2015-01-21T21:16:06Z</time>
      </trkpt>
      <trkpt lat="59.163671" lon="17.869909">
        <ele>85.4</ele>
        <time>2015-01-21T21:16:09Z</time>
      </trkpt>
      <trkpt lat="59.163651" lon="17.869667">
        <ele>85.1</ele>
        <time>2015-01-21T21:16:11Z</time>
      </trkpt>
      <trkpt lat="59.163651" lon="17.869372">
        <ele>85</ele>
        <time>2015-01-21T21:16:14Z</time>
      </trkpt>
      <trkpt lat="59.16364" lon="17.869218">
        <ele>85</ele>
        <time>2015-01-21T21:16:16Z</time>
      </trkpt>
      <trkpt lat="59.163669" lon="17.868878">
        <ele>85</ele>
        <time>2015-01-21T21:16:20Z</time>
      </trkpt>
      <trkpt lat="59.163697" lon="17.868588">
        <ele>84.8</ele>
        <time>2015-01-21T21:16:24Z</time>
      </trkpt>
      <trkpt lat="59.16371" lon="17.868507">
        <ele>84.7</ele>
        <time>2015-01-21T21:16:25Z</time>
      </trkpt>
      <trkpt lat="59.163719" lon="17.868073">
        <ele>84.2</ele>
        <time>2015-01-21T21:16:30Z</time>
      </trkpt>
      <trkpt lat="59.163715" lon="17.86788">
        <ele>84</ele>
        <time>2015-01-21T21:16:32Z</time>
      </trkpt>
      <trkpt lat="59.163704" lon="17.867623">
        <ele>83.6</ele>
        <time>2015-01-21T21:16:35Z</time>
      </trkpt>
      <trkpt lat="59.163659" lon="17.867239">
        <ele>83.2</ele>
        <time>2015-01-21T21:16:40Z</time>
      </trkpt>
      <trkpt lat="59.163538" lon="17.866711">
        <ele>82.4</ele>
        <time>2015-01-21T21:16:45Z</time>
      </trkpt>
      <trkpt lat="59.163491" lon="17.866471">
        <ele>82</ele>
        <time>2015-01-21T21:16:48Z</time>
      </trkpt>
      <trkpt lat="59.163494" lon="17.866298">
        <ele>81.8</ele>
        <time>2015-01-21T21:16:51Z</time>
      </trkpt>
      <trkpt lat="59.163556" lon="17.866422">
        <ele>82</ele>
        <time>2015-01-21T21:16:55Z</time>
      </trkpt>
      <trkpt lat="59.16357" lon="17.866476">
        <ele>82.1</ele>
        <time>2015-01-21T21:16:56Z</time>
      </trkpt>
      <trkpt lat="59.163698" lon="17.866638">
        <ele>82.4</ele>
        <time>2015-01-21T21:17:02Z</time>
      </trkpt>
      <trkpt lat="59.16373" lon="17.866693">
        <ele>82.5</ele>
        <time>2015-01-21T21:17:04Z</time>
      </trkpt>
      <trkpt lat="59.163723" lon="17.866934">
        <ele>82.8</ele>
        <time>2015-01-21T21:17:09Z</time>
      </trkpt>
      <trkpt lat="59.163667" lon="17.86745">
        <ele>83.4</ele>
        <time>2015-01-21T21:17:14Z</time>
      </trkpt>
      <trkpt lat="59.163698" lon="17.867843">
        <ele>83.9</ele>
        <time>2015-01-21T21:17:18Z</time>
      </trkpt>
      <trkpt lat="59.163696" lon="17.86796">
        <ele>84.1</ele>
        <time>2015-01-21T21:17:19Z</time>
      </trkpt>
      <trkpt lat="59.163628" lon="17.868482">
        <ele>84.7</ele>
        <time>2015-01-21T21:17:24Z</time>
      </trkpt>
      <trkpt lat="59.163564" lon="17.869108">
        <ele>85</ele>
        <time>2015-01-21T21:17:30Z</time>
      </trkpt>
      <trkpt lat="59.163555" lon="17.869222">
        <ele>85</ele>
        <time>2015-01-21T21:17:31Z</time>
      </trkpt>
      <trkpt lat="59.163526" lon="17.869545">
        <ele>85</ele>
        <time>2015-01-21T21:17:34Z</time>
      </trkpt>
      <trkpt lat="59.163542" lon="17.869863">
        <ele>85.3</ele>
        <time>2015-01-21T21:17:37Z</time>
      </trkpt>
      <trkpt lat="59.163544" lon="17.870171">
        <ele>85.7</ele>
        <time>2015-01-21T21:17:40Z</time>
      </trkpt>
      <trkpt lat="59.163558" lon="17.870444">
        <ele>86</ele>
        <time>2015-01-21T21:17:44Z</time>
      </trkpt>
      <trkpt lat="59.163534" lon="17.870908">
        <ele>85.4</ele>
        <time>2015-01-21T21:17:48Z</time>
      </trkpt>
      <trkpt lat="59.163643" lon="17.871202">
        <ele>85.1</ele>
        <time>2015-01-21T21:17:52Z</time>
      </trkpt>
      <trkpt lat="59.163812" lon="17.871627">
        <ele>84.6</ele>
        <time>2015-01-21T21:17:58Z</time>
      </trkpt>
      <trkpt lat="59.163817" lon="17.871713">
        <ele>84.5</ele>
        <time>2015-01-21T21:17:59Z</time>
      </trkpt>
      <trkpt lat="59.163888" lon="17.872287">
        <ele>84</ele>
        <time>2015-01-21T21:18:05Z</time>
      </trkpt>
      <trkpt lat="59.16394" lon="17.872554">
        <ele>83.8</ele>
        <time>2015-01-21T21:18:08Z</time>
      </trkpt>
      <trkpt lat="59.16396" lon="17.872894">
        <ele>83.5</ele>
        <time>2015-01-21T21:18:13Z</time>
      </trkpt>
      <trkpt lat="59.163966" lon="17.872967">
        <ele>83.4</ele>
        <time>2015-01-21T21:18:14Z</time>
      </trkpt>
      <trkpt lat="59.164064" lon="17.873467">
        <ele>82.9</ele>
        <time>2015-01-21T21:18:20Z</time>
      </trkpt>
      <trkpt lat="59.164082" lon="17.873688">
        <ele>82.7</ele>
        <time>2015-01-21T21:18:23Z</time>
      </trkpt>
      <trkpt lat="59.164062" lon="17.873978">
        <ele>82.5</ele>
        <time>2015-01-21T21:18:27Z</time>
      </trkpt>
      <trkpt lat="59.164004" lon="17.87443">
        <ele>82.2</ele>
        <time>2015-01-21T21:18:33Z</time>
      </trkpt>
      <trkpt lat="59.164011" lon="17.874524">
        <ele>82.3</ele>
        <time>2015-01-21T21:18:34Z</time>
      </trkpt>
      <trkpt lat="59.164039" lon="17.874897">
        <ele>82.6</ele>
        <time>2015-01-21T21:18:38Z</time>
      </trkpt>
      <trkpt lat="59.164022" lon="17.875136">
        <ele>82.8</ele>
        <time>2015-01-21T21:18:43Z</time>
      </trkpt>
      <trkpt lat="59.164061" lon="17.875247">
        <ele>83</ele>
        <time>2015-01-21T21:18:48Z</time>
      </trkpt>
      <trkpt lat="59.164102" lon="17.875428">
        <ele>83.3</ele>
        <time>2015-01-21T21:18:53Z</time>
      </trkpt>
      <trkpt lat="59.164102" lon="17.875467">
        <ele>83.3</ele>
        <time>2015-01-21T21:18:54Z</time>
      </trkpt>
      <trkpt lat="59.163927" lon="17.875799">
        <ele>82.6</ele>
        <time>2015-01-21T21:18:58Z</time>
      </trkpt>
      <trkpt lat="59.163654" lon="17.875955">
        <ele>82.3</ele>
        <time>2015-01-21T21:19:03Z</time>
      </trkpt>
      <trkpt lat="59.163596" lon="17.875992">
        <ele>82.4</ele>
        <time>2015-01-21T21:19:04Z</time>
      </trkpt>
      <trkpt lat="59.163277" lon="17.876138">
        <ele>83.2</ele>
        <time>2015-01-21T21:19:12Z</time>
      </trkpt>
      <trkpt lat="59.163253" lon="17.87613">
        <ele>83.3</ele>
        <time>2015-01-21T21:19:14Z</time>
      </trkpt>
      <trkpt lat="59.16323" lon="17.876144">
        <ele>83.3</ele>
        <time>2015-01-21T21:19:17Z</time>
      </trkpt>
      <trkpt lat="59.16323" lon="17.876144">
        <ele>83.3</ele>
        <time>2015-01-21T21:19:18Z</time>
      </trkpt>
      <trkpt lat="59.16323" lon="17.876144">
        <ele>83.3</ele>
        <time>2015-01-21T21:19:34Z</time>
      </trkpt>
      <trkpt lat="59.163201" lon="17.876167">
        <ele>83.4</ele>
        <time>2015-01-21T21:19:35Z</time>
      </trkpt>
      <trkpt lat="59.163201" lon="17.876166">
        <ele>83.4</ele>
        <time>2015-01-21T21:19:36Z</time>
      </trkpt>
      <trkpt lat="59.163166" lon="17.876259">
        <ele>83.4</ele>
        <time>2015-01-21T21:19:39Z</time>
      </trkpt>
      <trkpt lat="59.163175" lon="17.876319">
        <ele>83.3</ele>
        <time>2015-01-21T21:19:42Z</time>
      </trkpt>
    </trkseg>
  </trk>
</gpx>